<?xml version='1.0' encoding='UTF-8'?><gpx version="1.1" creator="JPX - https://github.com/jenetics/jpx" xmlns="http://www.topografix.com/GPX/1/1"><trk><trkseg><trkpt lat="44.62079562623067" lon="10.07753737177923"><ele>635.0</ele><time>2026-05-02T08:21:42Z</time></trkpt><trkpt lat="44.620730595848045" lon="10.07748962336679"><ele>635.0</ele><time>2026-05-02T08:21:44Z</time></trkpt><trkpt lat="44.62070310803204" lon="10.07739912271524"><ele>635.0</ele><time>2026-05-02T08:21:46Z</time></trkpt><trkpt lat="44.62074071998309" lon="10.077322825266016"><ele>635.0</ele><time>2026-05-02T08:21:48Z</time></trkpt><trkpt lat="44.620815512622066" lon="10.077229058203203"><ele>635.0</ele><time>2026-05-02T08:22:06Z</time></trkpt><trkpt lat="44.620865502675905" lon="10.077174433700735"><ele>635.0</ele><time>2026-05-02T08:22:08Z</time></trkpt><trkpt lat="44.62093842184072" lon="10.077208256028475"><ele>637.8</ele><time>2026-05-02T08:22:10Z</time></trkpt><trkpt lat="44.62102236978448" lon="10.077189166682517"><ele>640.6</ele><time>2026-05-02T08:22:13Z</time></trkpt><trkpt lat="44.62108748499198" lon="10.077137310504567"><ele>643.4000000000001</ele><time>2026-05-02T08:22:15Z</time></trkpt><trkpt lat="44.62121354056477" lon="10.077078533516353"><ele>646.2</ele><time>2026-05-02T08:22:17Z</time></trkpt><trkpt lat="44.62129457069681" lon="10.077062402617852"><ele>649.0</ele><time>2026-05-02T08:22:18Z</time></trkpt><trkpt lat="44.621364534968244" lon="10.07700214278424"><ele>649.0</ele><time>2026-05-02T08:22:19Z</time></trkpt><trkpt lat="44.62142923461767" lon="10.076933751544923"><ele>649.0</ele><time>2026-05-02T08:22:20Z</time></trkpt><trkpt lat="44.62150246131294" lon="10.076871119018598"><ele>649.0</ele><time>2026-05-02T08:22:21Z</time></trkpt><trkpt lat="44.621559930642675" lon="10.076795161619394"><ele>649.0</ele><time>2026-05-02T08:22:22Z</time></trkpt><trkpt lat="44.6216095013877" lon="10.076713775922036"><ele>649.0</ele><time>2026-05-02T08:22:23Z</time></trkpt><trkpt lat="44.621644228329394" lon="10.076632240802972"><ele>649.0</ele><time>2026-05-02T08:22:24Z</time></trkpt><trkpt lat="44.621693168841475" lon="10.076556506895454"><ele>651.0</ele><time>2026-05-02T08:22:25Z</time></trkpt><trkpt lat="44.62176091873741" lon="10.0764736080333"><ele>653.0</ele><time>2026-05-02T08:22:27Z</time></trkpt><trkpt lat="44.62170814975396" lon="10.076354873565519"><ele>655.0</ele><time>2026-05-02T08:22:29Z</time></trkpt><trkpt lat="44.621589829851956" lon="10.076372019022244"><ele>657.0</ele><time>2026-05-02T08:22:31Z</time></trkpt><trkpt lat="44.62151232716045" lon="10.076320681549735"><ele>659.0</ele><time>2026-05-02T08:22:33Z</time></trkpt><trkpt lat="44.62161676146641" lon="10.076329128204673"><ele>659.0</ele><time>2026-05-02T08:22:37Z</time></trkpt><trkpt lat="44.62169701886644" lon="10.07634123690159"><ele>659.0</ele><time>2026-05-02T08:22:39Z</time></trkpt><trkpt lat="44.62176922173437" lon="10.076201480113248"><ele>659.0</ele><time>2026-05-02T08:25:16.001Z</time></trkpt><trkpt lat="44.62174037145059" lon="10.076356460821565"><ele>659.0</ele><time>2026-05-02T08:25:19.001Z</time></trkpt><trkpt lat="44.62177696475043" lon="10.076080988336015"><ele>659.0</ele><time>2026-05-02T08:25:20.001Z</time></trkpt><trkpt lat="44.62188697353624" lon="10.076109328217013"><ele>659.0</ele><time>2026-05-02T08:25:21Z</time></trkpt><trkpt lat="44.62197036325086" lon="10.075960957166718"><ele>659.0</ele><time>2026-05-02T08:25:23Z</time></trkpt><trkpt lat="44.62201031412529" lon="10.075883027630343"><ele>659.0</ele><time>2026-05-02T08:25:24Z</time></trkpt><trkpt lat="44.62196102054117" lon="10.075771737763636"><ele>659.0</ele><time>2026-05-02T08:25:25Z</time></trkpt><trkpt lat="44.62198049080457" lon="10.075654914734676"><ele>659.0</ele><time>2026-05-02T08:25:27Z</time></trkpt><trkpt lat="44.622038099728016" lon="10.075591950062877"><ele>659.0</ele><time>2026-05-02T08:25:29Z</time></trkpt><trkpt lat="44.62192719212763" lon="10.075935468244609"><ele>659.0</ele><time>2026-05-02T08:25:30Z</time></trkpt><trkpt lat="44.62194868726205" lon="10.075845737654227"><ele>659.0</ele><time>2026-05-02T08:25:56Z</time></trkpt><trkpt lat="44.62195148723843" lon="10.07573858149089"><ele>658.5</ele><time>2026-05-02T08:25:58Z</time></trkpt><trkpt lat="44.62197666463918" lon="10.075646980421023"><ele>658.0</ele><time>2026-05-02T08:26:00Z</time></trkpt><trkpt lat="44.622011237363736" lon="10.075529745317645"><ele>657.5</ele><time>2026-05-02T08:26:03Z</time></trkpt><trkpt lat="44.62224718157679" lon="10.075563228903206"><ele>657.0</ele><time>2026-05-02T08:26:04Z</time></trkpt><trkpt lat="44.622321333217734" lon="10.075562408369287"><ele>656.2</ele><time>2026-05-02T08:26:05Z</time></trkpt><trkpt lat="44.62239155326139" lon="10.075577664906708"><ele>655.4000000000001</ele><time>2026-05-02T08:26:06Z</time></trkpt><trkpt lat="44.62245804012326" lon="10.075608436351525"><ele>654.5999999999999</ele><time>2026-05-02T08:26:07Z</time></trkpt><trkpt lat="44.62257993856008" lon="10.075642606647586"><ele>653.8</ele><time>2026-05-02T08:26:09Z</time></trkpt><trkpt lat="44.622683513061105" lon="10.075651538805154"><ele>653.0</ele><time>2026-05-02T08:26:11Z</time></trkpt><trkpt lat="44.622794239655676" lon="10.075725766756047"><ele>653.0</ele><time>2026-05-02T08:26:13Z</time></trkpt><trkpt lat="44.62281427261805" lon="10.076038247344778"><ele>653.0</ele><time>2026-05-02T08:26:14Z</time></trkpt><trkpt lat="44.622928003153504" lon="10.076059847460312"><ele>653.0</ele><time>2026-05-02T08:26:16Z</time></trkpt><trkpt lat="44.62303199406474" lon="10.076088469065972"><ele>653.0</ele><time>2026-05-02T08:26:18Z</time></trkpt><trkpt lat="44.62312790913733" lon="10.07613339521622"><ele>653.0</ele><time>2026-05-02T08:26:20Z</time></trkpt><trkpt lat="44.62322779719443" lon="10.0761868708431"><ele>653.0</ele><time>2026-05-02T08:26:22Z</time></trkpt><trkpt lat="44.623299339392055" lon="10.076246043275214"><ele>653.0</ele><time>2026-05-02T08:26:24Z</time></trkpt><trkpt lat="44.62335715961053" lon="10.076296893331012"><ele>653.0</ele><time>2026-05-02T08:26:25Z</time></trkpt><trkpt lat="44.623442204987455" lon="10.076380503185783"><ele>653.0</ele><time>2026-05-02T08:26:27Z</time></trkpt><trkpt lat="44.623510819481005" lon="10.076461063768765"><ele>653.0</ele><time>2026-05-02T08:26:29Z</time></trkpt><trkpt lat="44.623567877813564" lon="10.076548103229424"><ele>653.0</ele><time>2026-05-02T08:26:31Z</time></trkpt><trkpt lat="44.62360727517595" lon="10.076652344935576"><ele>653.0</ele><time>2026-05-02T08:26:33Z</time></trkpt><trkpt lat="44.62362250644917" lon="10.076749058033943"><ele>653.0</ele><time>2026-05-02T08:26:35Z</time></trkpt><trkpt lat="44.623639449243804" lon="10.076897212649829"><ele>653.0</ele><time>2026-05-02T08:26:37Z</time></trkpt><trkpt lat="44.62361666480561" lon="10.077030109452826"><ele>653.0</ele><time>2026-05-02T08:26:40Z</time></trkpt><trkpt lat="44.62360778783232" lon="10.077199194761027"><ele>652.25</ele><time>2026-05-02T08:26:42Z</time></trkpt><trkpt lat="44.623615448777585" lon="10.077407197910007"><ele>651.5</ele><time>2026-05-02T08:26:44Z</time></trkpt><trkpt lat="44.62363177622452" lon="10.07751519675746"><ele>650.75</ele><time>2026-05-02T08:26:45Z</time></trkpt><trkpt lat="44.62367749508441" lon="10.077650216256872"><ele>650.0</ele><time>2026-05-02T08:26:46Z</time></trkpt><trkpt lat="44.623844832656474" lon="10.077795875667585"><ele>650.0</ele><time>2026-05-02T08:26:47Z</time></trkpt><trkpt lat="44.623907696117264" lon="10.077842971750291"><ele>650.0</ele><time>2026-05-02T08:26:49Z</time></trkpt><trkpt lat="44.62397761489275" lon="10.077957468554635"><ele>650.0</ele><time>2026-05-02T08:26:51.001Z</time></trkpt><trkpt lat="44.62401577693873" lon="10.078046676072345"><ele>650.0</ele><time>2026-05-02T08:26:53.001Z</time></trkpt><trkpt lat="44.62403433690364" lon="10.078148033817504"><ele>650.0</ele><time>2026-05-02T08:26:55.001Z</time></trkpt><trkpt lat="44.62404383302029" lon="10.078267511083787"><ele>650.0</ele><time>2026-05-02T08:26:57.001Z</time></trkpt><trkpt lat="44.62405552324132" lon="10.078620599315578"><ele>649.5</ele><time>2026-05-02T08:27:01.001Z</time></trkpt><trkpt lat="44.62420655605344" lon="10.078877800497137"><ele>649.0</ele><time>2026-05-02T08:27:02.001Z</time></trkpt><trkpt lat="44.624283074512526" lon="10.078941772762288"><ele>648.5</ele><time>2026-05-02T08:27:04.001Z</time></trkpt><trkpt lat="44.62437968999676" lon="10.079022666505054"><ele>648.0</ele><time>2026-05-02T08:27:06.001Z</time></trkpt><trkpt lat="44.624872316466565" lon="10.078992689293216"><ele>647.0</ele><time>2026-05-02T08:27:08.001Z</time></trkpt><trkpt lat="44.62495251051356" lon="10.078938747149289"><ele>646.0</ele><time>2026-05-02T08:27:10.001Z</time></trkpt><trkpt lat="44.62503737594479" lon="10.078881662710947"><ele>645.0</ele><time>2026-05-02T08:27:12.001Z</time></trkpt><trkpt lat="44.62513163355853" lon="10.078818260698846"><ele>644.0</ele><time>2026-05-02T08:27:14.001Z</time></trkpt><trkpt lat="44.62521035233799" lon="10.078765310727116"><ele>643.0</ele><time>2026-05-02T08:27:16.001Z</time></trkpt><trkpt lat="44.62529201870483" lon="10.078710378060329"><ele>640.5</ele><time>2026-05-02T08:27:18.001Z</time></trkpt><trkpt lat="44.6253711796887" lon="10.078657206270885"><ele>638.0</ele><time>2026-05-02T08:27:21.001Z</time></trkpt><trkpt lat="44.625438087567936" lon="10.078613166655504"><ele>635.5</ele><time>2026-05-02T08:27:23.001Z</time></trkpt><trkpt lat="44.62544045738222" lon="10.078300648547641"><ele>633.0</ele><time>2026-05-02T08:27:26.001Z</time></trkpt><trkpt lat="44.625525853939344" lon="10.078342134052438"><ele>633.0</ele><time>2026-05-02T08:27:28Z</time></trkpt><trkpt lat="44.62563376797803" lon="10.07833863112464"><ele>633.0</ele><time>2026-05-02T08:27:30Z</time></trkpt><trkpt lat="44.62571023641425" lon="10.078445786161083"><ele>633.0</ele><time>2026-05-02T08:27:31Z</time></trkpt><trkpt lat="44.62579916647992" lon="10.078415106839955"><ele>633.0</ele><time>2026-05-02T08:27:33Z</time></trkpt><trkpt lat="44.62586983518466" lon="10.078404120209413"><ele>633.0</ele><time>2026-05-02T08:27:35Z</time></trkpt><trkpt lat="44.626010330056964" lon="10.07841583557623"><ele>632.0</ele><time>2026-05-02T08:27:44Z</time></trkpt><trkpt lat="44.626082637311384" lon="10.07825413081407"><ele>631.0</ele><time>2026-05-02T08:27:45Z</time></trkpt><trkpt lat="44.62618634128378" lon="10.078249787944968"><ele>630.0</ele><time>2026-05-02T08:27:46Z</time></trkpt><trkpt lat="44.626289843016416" lon="10.078244051398249"><ele>629.0</ele><time>2026-05-02T08:27:47Z</time></trkpt><trkpt lat="44.626363130445554" lon="10.078246067181592"><ele>628.0</ele><time>2026-05-02T08:27:48Z</time></trkpt><trkpt lat="44.6265672457173" lon="10.078213332037285"><ele>628.0</ele><time>2026-05-02T08:27:50Z</time></trkpt><trkpt lat="44.62666143361701" lon="10.078199152614772"><ele>628.0</ele><time>2026-05-02T08:27:51Z</time></trkpt><trkpt lat="44.626744513309866" lon="10.07816078013699"><ele>628.0</ele><time>2026-05-02T08:27:52Z</time></trkpt><trkpt lat="44.62684229659447" lon="10.078135771572935"><ele>628.0</ele><time>2026-05-02T08:27:53Z</time></trkpt><trkpt lat="44.626933111807304" lon="10.078142699971997"><ele>628.0</ele><time>2026-05-02T08:27:54Z</time></trkpt><trkpt lat="44.62700758082281" lon="10.078148514406585"><ele>628.0</ele><time>2026-05-02T08:27:55Z</time></trkpt><trkpt lat="44.627087676453215" lon="10.078176666584874"><ele>629.8333333333334</ele><time>2026-05-02T08:27:56Z</time></trkpt><trkpt lat="44.62716944707121" lon="10.078145033829514"><ele>631.6666666666667</ele><time>2026-05-02T08:27:57Z</time></trkpt><trkpt lat="44.62724470490522" lon="10.078117729394544"><ele>633.5</ele><time>2026-05-02T08:27:58Z</time></trkpt><trkpt lat="44.62730421696491" lon="10.078084050755173"><ele>635.3333333333334</ele><time>2026-05-02T08:27:59Z</time></trkpt><trkpt lat="44.627358561442186" lon="10.07803094530174"><ele>637.1666666666666</ele><time>2026-05-02T08:28:00Z</time></trkpt><trkpt lat="44.627450030011495" lon="10.0779925052167"><ele>639.0</ele><time>2026-05-02T08:28:02Z</time></trkpt><trkpt lat="44.627517534961726" lon="10.077981693094111"><ele>639.0</ele><time>2026-05-02T08:28:05Z</time></trkpt><trkpt lat="44.627535482432336" lon="10.077691258694285"><ele>639.0</ele><time>2026-05-02T08:28:09Z</time></trkpt><trkpt lat="44.627565011833575" lon="10.077592936222246"><ele>639.0</ele><time>2026-05-02T08:28:12Z</time></trkpt><trkpt lat="44.627573783984474" lon="10.077498778510408"><ele>639.0</ele><time>2026-05-02T08:28:14Z</time></trkpt><trkpt lat="44.627570568200575" lon="10.077389113846502"><ele>639.0</ele><time>2026-05-02T08:28:16Z</time></trkpt><trkpt lat="44.62760287074855" lon="10.077286687081633"><ele>637.4</ele><time>2026-05-02T08:28:18Z</time></trkpt><trkpt lat="44.62767269192488" lon="10.077208543620998"><ele>635.8</ele><time>2026-05-02T08:28:20Z</time></trkpt><trkpt lat="44.62773525064443" lon="10.077118565921843"><ele>634.2</ele><time>2026-05-02T08:28:22Z</time></trkpt><trkpt lat="44.62779042638566" lon="10.077023095845352"><ele>632.6</ele><time>2026-05-02T08:28:24Z</time></trkpt><trkpt lat="44.62786668446503" lon="10.076919984986178"><ele>631.0</ele><time>2026-05-02T08:28:26Z</time></trkpt><trkpt lat="44.627944603836326" lon="10.0768057635697"><ele>630.6666666666667</ele><time>2026-05-02T08:28:28Z</time></trkpt><trkpt lat="44.628024380802856" lon="10.076711440892225"><ele>630.3333333333334</ele><time>2026-05-02T08:28:30Z</time></trkpt><trkpt lat="44.62808074422927" lon="10.07661929786467"><ele>630.0</ele><time>2026-05-02T08:28:32Z</time></trkpt><trkpt lat="44.62812750780407" lon="10.076537333688082"><ele>629.6666666666666</ele><time>2026-05-02T08:28:34Z</time></trkpt><trkpt lat="44.62817251008055" lon="10.076457723536082"><ele>629.3333333333333</ele><time>2026-05-02T08:28:36Z</time></trkpt><trkpt lat="44.62821494477647" lon="10.07637416703508"><ele>629.0</ele><time>2026-05-02T08:28:38Z</time></trkpt><trkpt lat="44.62825330306506" lon="10.076271090054144"><ele>627.2</ele><time>2026-05-02T08:28:40Z</time></trkpt><trkpt lat="44.6283010064844" lon="10.076197632840968"><ele>625.4</ele><time>2026-05-02T08:28:42Z</time></trkpt><trkpt lat="44.6283689168634" lon="10.076096971897915"><ele>623.6</ele><time>2026-05-02T08:28:44Z</time></trkpt><trkpt lat="44.62843275092315" lon="10.076005152749858"><ele>621.8</ele><time>2026-05-02T08:28:46Z</time></trkpt><trkpt lat="44.62849192759939" lon="10.07591810993715"><ele>620.0</ele><time>2026-05-02T08:28:48Z</time></trkpt><trkpt lat="44.628550401890124" lon="10.075795991925958"><ele>616.6666666666666</ele><time>2026-05-02T08:28:50.001Z</time></trkpt><trkpt lat="44.62860146631674" lon="10.07568683235183"><ele>613.3333333333333</ele><time>2026-05-02T08:28:52.001Z</time></trkpt><trkpt lat="44.62863782255313" lon="10.075591853033652"><ele>610.0</ele><time>2026-05-02T08:28:54.001Z</time></trkpt><trkpt lat="44.628679841493835" lon="10.075503101340553"><ele>606.6666666666666</ele><time>2026-05-02T08:28:56.001Z</time></trkpt><trkpt lat="44.628710643956275" lon="10.075400616699012"><ele>603.3333333333334</ele><time>2026-05-02T08:28:58.001Z</time></trkpt><trkpt lat="44.62870180242285" lon="10.075296887628095"><ele>600.0</ele><time>2026-05-02T08:29:00.001Z</time></trkpt><trkpt lat="44.628640935452" lon="10.075225082788974"><ele>599.9999999999999</ele><time>2026-05-02T08:29:02.001Z</time></trkpt><trkpt lat="44.62857264228796" lon="10.075209829669046"><ele>600.0</ele><time>2026-05-02T08:29:04.001Z</time></trkpt><trkpt lat="44.62850688912008" lon="10.075218070816069"><ele>600.0</ele><time>2026-05-02T08:29:06.001Z</time></trkpt><trkpt lat="44.628436417578584" lon="10.075237446641912"><ele>600.0</ele><time>2026-05-02T08:29:08.001Z</time></trkpt><trkpt lat="44.6283670471378" lon="10.075265844370314"><ele>600.0</ele><time>2026-05-02T08:29:10.001Z</time></trkpt><trkpt lat="44.628291987760164" lon="10.075252743584782"><ele>599.9999999999999</ele><time>2026-05-02T08:29:13.001Z</time></trkpt><trkpt lat="44.628299841038334" lon="10.075162484678481"><ele>600.0</ele><time>2026-05-02T08:29:16.001Z</time></trkpt><trkpt lat="44.62835529342983" lon="10.07510608821455"><ele>599.9999999999999</ele><time>2026-05-02T08:29:18.001Z</time></trkpt><trkpt lat="44.62841557230035" lon="10.075071183680768"><ele>600.0</ele><time>2026-05-02T08:29:20.001Z</time></trkpt><trkpt lat="44.62845877087884" lon="10.074986164309731"><ele>600.0</ele><time>2026-05-02T08:29:22.001Z</time></trkpt><trkpt lat="44.628494285219716" lon="10.074888373089967"><ele>600.0</ele><time>2026-05-02T08:29:24.001Z</time></trkpt><trkpt lat="44.628532232161994" lon="10.074799106012406"><ele>600.0</ele><time>2026-05-02T08:29:26.001Z</time></trkpt><trkpt lat="44.628583706849994" lon="10.07471697146362"><ele>599.9999999999999</ele><time>2026-05-02T08:29:28.001Z</time></trkpt><trkpt lat="44.62862799506662" lon="10.07463280504362"><ele>600.0</ele><time>2026-05-02T08:29:30.001Z</time></trkpt><trkpt lat="44.628674848758564" lon="10.074555691972073"><ele>596.2</ele><time>2026-05-02T08:29:32.001Z</time></trkpt><trkpt lat="44.62872496265199" lon="10.074486107821258"><ele>592.4</ele><time>2026-05-02T08:29:34Z</time></trkpt><trkpt lat="44.62879563002477" lon="10.074410404797959"><ele>588.6</ele><time>2026-05-02T08:29:36Z</time></trkpt><trkpt lat="44.62887641507093" lon="10.074318566797615"><ele>584.8</ele><time>2026-05-02T08:29:38Z</time></trkpt><trkpt lat="44.62893143001809" lon="10.07419766763684"><ele>581.0</ele><time>2026-05-02T08:29:40Z</time></trkpt><trkpt lat="44.62898052033658" lon="10.074089636259218"><ele>578.8333333333333</ele><time>2026-05-02T08:29:42Z</time></trkpt><trkpt lat="44.62905851338519" lon="10.073982736199863"><ele>576.6666666666666</ele><time>2026-05-02T08:29:44Z</time></trkpt><trkpt lat="44.62913009373626" lon="10.073879915176978"><ele>574.5</ele><time>2026-05-02T08:29:46Z</time></trkpt><trkpt lat="44.62917718794437" lon="10.073789182664104"><ele>572.3333333333334</ele><time>2026-05-02T08:29:48Z</time></trkpt><trkpt lat="44.62923630354062" lon="10.073704428088694"><ele>570.1666666666667</ele><time>2026-05-02T08:29:50Z</time></trkpt><trkpt lat="44.62928473958226" lon="10.073636943943555"><ele>568.0</ele><time>2026-05-02T08:29:52Z</time></trkpt><trkpt lat="44.62934420856429" lon="10.073587981981698"><ele>568.0</ele><time>2026-05-02T08:29:56Z</time></trkpt><trkpt lat="44.629410096571135" lon="10.073543391925087"><ele>568.0</ele><time>2026-05-02T08:30:49.001Z</time></trkpt><trkpt lat="44.6294855097137" lon="10.073495522486756"><ele>568.0</ele><time>2026-05-02T08:30:51.001Z</time></trkpt><trkpt lat="44.62958852254517" lon="10.07346187904192"><ele>568.0</ele><time>2026-05-02T08:30:53.001Z</time></trkpt><trkpt lat="44.629688579690125" lon="10.07335389237705"><ele>568.0</ele><time>2026-05-02T08:30:55.001Z</time></trkpt><trkpt lat="44.62978595464187" lon="10.073290091179743"><ele>565.6666666666667</ele><time>2026-05-02T08:30:57.001Z</time></trkpt><trkpt lat="44.6298948395047" lon="10.073249566716722"><ele>563.3333333333334</ele><time>2026-05-02T08:30:59.001Z</time></trkpt><trkpt lat="44.630004132435545" lon="10.073175732953594"><ele>561.0</ele><time>2026-05-02T08:31:01.001Z</time></trkpt><trkpt lat="44.63006673756407" lon="10.073139482514122"><ele>558.6666666666666</ele><time>2026-05-02T08:31:02.001Z</time></trkpt><trkpt lat="44.630130362783895" lon="10.07311689901274"><ele>556.3333333333333</ele><time>2026-05-02T08:31:03.001Z</time></trkpt><trkpt lat="44.630187589944846" lon="10.073076599717316"><ele>554.0</ele><time>2026-05-02T08:31:04.001Z</time></trkpt><trkpt lat="44.63025669934021" lon="10.073070298192494"><ele>553.0</ele><time>2026-05-02T08:31:05.001Z</time></trkpt><trkpt lat="44.6303352282846" lon="10.07306461366615"><ele>552.0</ele><time>2026-05-02T08:31:06.001Z</time></trkpt><trkpt lat="44.63043026089789" lon="10.073054311007088"><ele>551.0</ele><time>2026-05-02T08:31:07.001Z</time></trkpt><trkpt lat="44.630521915055084" lon="10.073044900824495"><ele>550.0</ele><time>2026-05-02T08:31:08.001Z</time></trkpt><trkpt lat="44.63061293263803" lon="10.073038331197143"><ele>549.0</ele><time>2026-05-02T08:31:09.001Z</time></trkpt><trkpt lat="44.6307043452838" lon="10.073025455388324"><ele>548.0</ele><time>2026-05-02T08:31:10.001Z</time></trkpt><trkpt lat="44.63079376406991" lon="10.073009683165346"><ele>548.0</ele><time>2026-05-02T08:31:11.001Z</time></trkpt><trkpt lat="44.63088518475383" lon="10.072995474010254"><ele>548.0</ele><time>2026-05-02T08:31:12.001Z</time></trkpt><trkpt lat="44.63097576172232" lon="10.07298682276061"><ele>548.0</ele><time>2026-05-02T08:31:13.001Z</time></trkpt><trkpt lat="44.63105396213585" lon="10.07298629221888"><ele>548.0</ele><time>2026-05-02T08:31:14.001Z</time></trkpt><trkpt lat="44.631128914385656" lon="10.072987222162894"><ele>548.0</ele><time>2026-05-02T08:31:15.001Z</time></trkpt><trkpt lat="44.63120316976083" lon="10.072987809100905"><ele>548.0</ele><time>2026-05-02T08:31:16.001Z</time></trkpt><trkpt lat="44.63133018179372" lon="10.072989873690716"><ele>546.1999999999999</ele><time>2026-05-02T08:31:18.001Z</time></trkpt><trkpt lat="44.63139656529291" lon="10.072997234126557"><ele>544.4</ele><time>2026-05-02T08:31:19.001Z</time></trkpt><trkpt lat="44.63151283882395" lon="10.073007866445321"><ele>542.5999999999999</ele><time>2026-05-02T08:31:21.001Z</time></trkpt><trkpt lat="44.631629016626206" lon="10.073014207436115"><ele>540.8</ele><time>2026-05-02T08:31:23.001Z</time></trkpt><trkpt lat="44.63175038915703" lon="10.073023778152185"><ele>539.0</ele><time>2026-05-02T08:31:25.001Z</time></trkpt><trkpt lat="44.63185909019537" lon="10.072999954019982"><ele>539.0</ele><time>2026-05-02T08:31:27.001Z</time></trkpt><trkpt lat="44.6319647351287" lon="10.072947134152985"><ele>539.0</ele><time>2026-05-02T08:31:29.001Z</time></trkpt><trkpt lat="44.63207413010782" lon="10.072899487890414"><ele>539.0</ele><time>2026-05-02T08:31:31.001Z</time></trkpt><trkpt lat="44.63213782512394" lon="10.072886976083083"><ele>539.0</ele><time>2026-05-02T08:31:32.001Z</time></trkpt><trkpt lat="44.63220123429991" lon="10.072870795984617"><ele>539.0</ele><time>2026-05-02T08:31:33.001Z</time></trkpt><trkpt lat="44.632313950212755" lon="10.072855322808163"><ele>537.6</ele><time>2026-05-02T08:31:35.001Z</time></trkpt><trkpt lat="44.63241921162672" lon="10.072851899775253"><ele>536.2</ele><time>2026-05-02T08:31:37.001Z</time></trkpt><trkpt lat="44.63250745414244" lon="10.07283200500542"><ele>534.8000000000001</ele><time>2026-05-02T08:31:39Z</time></trkpt><trkpt lat="44.63258891517612" lon="10.072759785813908"><ele>533.4</ele><time>2026-05-02T08:31:41Z</time></trkpt><trkpt lat="44.6326838947902" lon="10.0726722253753"><ele>532.0</ele><time>2026-05-02T08:31:43Z</time></trkpt><trkpt lat="44.63275453709506" lon="10.07260690938826"><ele>530.0</ele><time>2026-05-02T08:31:45Z</time></trkpt><trkpt lat="44.63282285528559" lon="10.072542063137536"><ele>528.0</ele><time>2026-05-02T08:31:47Z</time></trkpt><trkpt lat="44.632908627810075" lon="10.072480240921987"><ele>526.0</ele><time>2026-05-02T08:31:49Z</time></trkpt><trkpt lat="44.632972145783654" lon="10.072415863126624"><ele>524.0</ele><time>2026-05-02T08:31:51Z</time></trkpt><trkpt lat="44.63303858787555" lon="10.072335645020592"><ele>522.0</ele><time>2026-05-02T08:31:53Z</time></trkpt><trkpt lat="44.6330838731178" lon="10.072241011638482"><ele>520.0</ele><time>2026-05-02T08:31:55Z</time></trkpt><trkpt lat="44.6331167456302" lon="10.072164002515418"><ele>519.8</ele><time>2026-05-02T08:32:22Z</time></trkpt><trkpt lat="44.63316131120994" lon="10.072060196303072"><ele>519.6</ele><time>2026-05-02T08:32:24Z</time></trkpt><trkpt lat="44.63323532513663" lon="10.0719439596745"><ele>519.4</ele><time>2026-05-02T08:32:26Z</time></trkpt><trkpt lat="44.63327924144012" lon="10.0718756015263"><ele>519.2</ele><time>2026-05-02T08:32:27Z</time></trkpt><trkpt lat="44.63336652995271" lon="10.071735977591642"><ele>519.0</ele><time>2026-05-02T08:32:29Z</time></trkpt><trkpt lat="44.63340288097973" lon="10.071649156785474"><ele>518.5714285714286</ele><time>2026-05-02T08:32:30Z</time></trkpt><trkpt lat="44.63345717594857" lon="10.071576876377916"><ele>518.1428571428571</ele><time>2026-05-02T08:32:31Z</time></trkpt><trkpt lat="44.6335048189113" lon="10.07150641522136"><ele>517.7142857142857</ele><time>2026-05-02T08:32:32Z</time></trkpt><trkpt lat="44.63355484372393" lon="10.071421858184406"><ele>517.2857142857142</ele><time>2026-05-02T08:32:33Z</time></trkpt><trkpt lat="44.6336048881726" lon="10.071337593073473"><ele>516.8571428571429</ele><time>2026-05-02T08:32:34Z</time></trkpt><trkpt lat="44.63365604490745" lon="10.071256968650832"><ele>516.4285714285713</ele><time>2026-05-02T08:32:35Z</time></trkpt><trkpt lat="44.633695160995984" lon="10.071171669224082"><ele>516.0</ele><time>2026-05-02T08:32:36Z</time></trkpt><trkpt lat="44.63372656049896" lon="10.071094469904212"><ele>516.0</ele><time>2026-05-02T08:32:37Z</time></trkpt><trkpt lat="44.63377607831945" lon="10.070956531250562"><ele>516.0</ele><time>2026-05-02T08:32:39Z</time></trkpt><trkpt lat="44.633819205814255" lon="10.070816823737603"><ele>516.0</ele><time>2026-05-02T08:32:41Z</time></trkpt><trkpt lat="44.63386075402534" lon="10.070685922330261"><ele>516.0</ele><time>2026-05-02T08:32:43Z</time></trkpt><trkpt lat="44.63390498703954" lon="10.070553585200123"><ele>516.0</ele><time>2026-05-02T08:32:45.001Z</time></trkpt><trkpt lat="44.633945445598194" lon="10.070425000818496"><ele>515.2</ele><time>2026-05-02T08:32:47.001Z</time></trkpt><trkpt lat="44.63397157603483" lon="10.070283861187775"><ele>514.4000000000001</ele><time>2026-05-02T08:32:49.001Z</time></trkpt><trkpt lat="44.63400069142564" lon="10.07016493121686"><ele>513.6</ele><time>2026-05-02T08:32:51.001Z</time></trkpt><trkpt lat="44.634060328232216" lon="10.070092936209369"><ele>512.8000000000001</ele><time>2026-05-02T08:33:45Z</time></trkpt><trkpt lat="44.63408064017569" lon="10.06997357764547"><ele>512.0</ele><time>2026-05-02T08:33:50Z</time></trkpt><trkpt lat="44.63430720363733" lon="10.069911683102841"><ele>511.1428571428571</ele><time>2026-05-02T08:33:52Z</time></trkpt><trkpt lat="44.634293452566325" lon="10.069819307308665"><ele>510.2857142857142</ele><time>2026-05-02T08:33:55Z</time></trkpt><trkpt lat="44.634315087643834" lon="10.069721076503647"><ele>509.42857142857144</ele><time>2026-05-02T08:33:57Z</time></trkpt><trkpt lat="44.6343116676348" lon="10.06960902753434"><ele>508.57142857142856</ele><time>2026-05-02T08:34:00Z</time></trkpt><trkpt lat="44.63428997132693" lon="10.069503621316633"><ele>507.7142857142857</ele><time>2026-05-02T08:34:02Z</time></trkpt><trkpt lat="44.634248946820364" lon="10.06941376555766"><ele>506.8571428571429</ele><time>2026-05-02T08:34:04Z</time></trkpt><trkpt lat="44.634211464832525" lon="10.069332069931571"><ele>506.00000000000006</ele><time>2026-05-02T08:34:06Z</time></trkpt><trkpt lat="44.634199749275105" lon="10.069232717899599"><ele>505.6</ele><time>2026-05-02T08:34:08Z</time></trkpt><trkpt lat="44.63416054933989" lon="10.069064592877412"><ele>505.20000000000005</ele><time>2026-05-02T08:34:10Z</time></trkpt><trkpt lat="44.63413436135043" lon="10.068917470515807"><ele>504.79999999999995</ele><time>2026-05-02T08:34:12Z</time></trkpt><trkpt lat="44.63413095618179" lon="10.068791673332255"><ele>504.4</ele><time>2026-05-02T08:34:14Z</time></trkpt><trkpt lat="44.634125839980975" lon="10.068688681857214"><ele>504.0</ele><time>2026-05-02T08:34:16Z</time></trkpt><trkpt lat="44.63415346897505" lon="10.068570680248056"><ele>504.0</ele><time>2026-05-02T08:34:18Z</time></trkpt><trkpt lat="44.63418217981212" lon="10.068432314698983"><ele>504.0</ele><time>2026-05-02T08:34:20Z</time></trkpt><trkpt lat="44.63421824138481" lon="10.068306528396937"><ele>504.0</ele><time>2026-05-02T08:34:22Z</time></trkpt><trkpt lat="44.634254509474566" lon="10.068180730615394"><ele>504.0</ele><time>2026-05-02T08:34:24Z</time></trkpt><trkpt lat="44.634302377112" lon="10.068094905880594"><ele>504.0</ele><time>2026-05-02T08:34:26Z</time></trkpt><trkpt lat="44.63437504494058" lon="10.068069358917306"><ele>504.0</ele><time>2026-05-02T08:34:28Z</time></trkpt><trkpt lat="44.634432742245295" lon="10.068024346097888"><ele>504.8333333333333</ele><time>2026-05-02T08:34:30Z</time></trkpt><trkpt lat="44.63450491791471" lon="10.06801700908057"><ele>505.66666666666663</ele><time>2026-05-02T08:34:32Z</time></trkpt><trkpt lat="44.634605497987685" lon="10.06801727865703"><ele>506.5</ele><time>2026-05-02T08:34:35Z</time></trkpt><trkpt lat="44.63467998958862" lon="10.068018904689117"><ele>507.3333333333333</ele><time>2026-05-02T08:34:37Z</time></trkpt><trkpt lat="44.634761344449316" lon="10.06805020166235"><ele>508.16666666666663</ele><time>2026-05-02T08:34:40Z</time></trkpt><trkpt lat="44.634826498972664" lon="10.068073130812921"><ele>509.0</ele><time>2026-05-02T08:34:42Z</time></trkpt><trkpt lat="44.63490782490489" lon="10.068034471665626"><ele>508.99999999999994</ele><time>2026-05-02T08:34:45.001Z</time></trkpt><trkpt lat="44.63496900131998" lon="10.068006590259994"><ele>509.0</ele><time>2026-05-02T08:34:47.001Z</time></trkpt><trkpt lat="44.63503943160344" lon="10.067981419981026"><ele>508.99999999999994</ele><time>2026-05-02T08:34:50.001Z</time></trkpt><trkpt lat="44.63510275200401" lon="10.06796160083513"><ele>508.99999999999994</ele><time>2026-05-02T08:34:53.001Z</time></trkpt><trkpt lat="44.63516892717124" lon="10.06793465020334"><ele>509.0</ele><time>2026-05-02T08:34:56.001Z</time></trkpt><trkpt lat="44.6352331546874" lon="10.067899839372965"><ele>508.99999999999994</ele><time>2026-05-02T08:34:59.001Z</time></trkpt><trkpt lat="44.63531125989206" lon="10.067847651679852"><ele>508.99999999999994</ele><time>2026-05-02T08:35:02.001Z</time></trkpt><trkpt lat="44.63536535625987" lon="10.067778813741556"><ele>505.49999999999994</ele><time>2026-05-02T08:35:05.001Z</time></trkpt><trkpt lat="44.63544688252197" lon="10.067721827368892"><ele>502.0</ele><time>2026-05-02T08:35:08.001Z</time></trkpt><trkpt lat="44.63552464697973" lon="10.06769270357994"><ele>498.5</ele><time>2026-05-02T08:35:10.001Z</time></trkpt><trkpt lat="44.635593344851294" lon="10.06768869885871"><ele>495.0</ele><time>2026-05-02T08:35:12.001Z</time></trkpt><trkpt lat="44.635649416875445" lon="10.06764541470737"><ele>491.49999999999994</ele><time>2026-05-02T08:35:16.001Z</time></trkpt><trkpt lat="44.63571938664621" lon="10.067605155516114"><ele>488.0</ele><time>2026-05-02T08:36:56.001Z</time></trkpt><trkpt lat="44.63580487963768" lon="10.067641759876613"><ele>487.99999999999994</ele><time>2026-05-02T08:36:59.001Z</time></trkpt><trkpt lat="44.635878834771205" lon="10.067625626619046"><ele>488.0</ele><time>2026-05-02T08:37:02.001Z</time></trkpt><trkpt lat="44.63579437788198" lon="10.06762618843844"><ele>487.99999999999994</ele><time>2026-05-02T08:37:06.001Z</time></trkpt><trkpt lat="44.63587340912654" lon="10.067616399036138"><ele>487.99999999999994</ele><time>2026-05-02T08:39:10.001Z</time></trkpt><trkpt lat="44.63593845759584" lon="10.067617738288249"><ele>488.0</ele><time>2026-05-02T08:39:22.001Z</time></trkpt><trkpt lat="44.636015584309206" lon="10.06763544242256"><ele>487.99999999999994</ele><time>2026-05-02T08:39:25.001Z</time></trkpt><trkpt lat="44.63606954729658" lon="10.067692564958378"><ele>487.99999999999994</ele><time>2026-05-02T08:39:29.001Z</time></trkpt><trkpt lat="44.63599632128333" lon="10.067618318380289"><ele>488.0</ele><time>2026-05-02T08:40:03.001Z</time></trkpt><trkpt lat="44.635861107334534" lon="10.06754663603813"><ele>488.0</ele><time>2026-05-02T08:40:04.001Z</time></trkpt><trkpt lat="44.635758595169925" lon="10.067506613116716"><ele>488.0</ele><time>2026-05-02T08:40:05.001Z</time></trkpt><trkpt lat="44.635671020709445" lon="10.067489553405181"><ele>488.0</ele><time>2026-05-02T08:40:06.001Z</time></trkpt><trkpt lat="44.635897311670924" lon="10.067629334500232"><ele>488.0</ele><time>2026-05-02T08:40:07.001Z</time></trkpt><trkpt lat="44.63578114009714" lon="10.067639635350817"><ele>487.99999999999994</ele><time>2026-05-02T08:43:45.001Z</time></trkpt><trkpt lat="44.63569484419325" lon="10.067597523352298"><ele>487.99999999999994</ele><time>2026-05-02T08:43:47.001Z</time></trkpt><trkpt lat="44.635606990671924" lon="10.06761835015442"><ele>488.0</ele><time>2026-05-02T08:43:49.001Z</time></trkpt><trkpt lat="44.6355367753775" lon="10.067666532660438"><ele>488.0</ele><time>2026-05-02T08:43:51.001Z</time></trkpt><trkpt lat="44.63543947182488" lon="10.06768315393107"><ele>487.99999999999994</ele><time>2026-05-02T08:43:53.001Z</time></trkpt><trkpt lat="44.63537951832586" lon="10.067735212867863"><ele>488.0</ele><time>2026-05-02T08:43:54.001Z</time></trkpt><trkpt lat="44.635311841558305" lon="10.067798571606843"><ele>488.0</ele><time>2026-05-02T08:43:55.001Z</time></trkpt><trkpt lat="44.635250483538854" lon="10.067847727873415"><ele>488.0</ele><time>2026-05-02T08:43:56.001Z</time></trkpt><trkpt lat="44.635195352842835" lon="10.067900356594341"><ele>487.99999999999994</ele><time>2026-05-02T08:43:57.001Z</time></trkpt><trkpt lat="44.635131051889054" lon="10.067941294050899"><ele>488.0</ele><time>2026-05-02T08:43:58.001Z</time></trkpt><trkpt lat="44.63504099977428" lon="10.067995917322317"><ele>491.49999999999994</ele><time>2026-05-02T08:43:59.001Z</time></trkpt><trkpt lat="44.634940179839816" lon="10.068042323672035"><ele>495.0</ele><time>2026-05-02T08:44:00.001Z</time></trkpt><trkpt lat="44.634874402784114" lon="10.06804341767915"><ele>498.5</ele><time>2026-05-02T08:44:04.001Z</time></trkpt><trkpt lat="44.634786856732454" lon="10.068077199230359"><ele>502.0</ele><time>2026-05-02T08:44:06.001Z</time></trkpt><trkpt lat="44.6347001956937" lon="10.068076082098505"><ele>505.49999999999994</ele><time>2026-05-02T08:44:08.001Z</time></trkpt><trkpt lat="44.634607874734954" lon="10.068059035878605"><ele>509.0</ele><time>2026-05-02T08:44:10.001Z</time></trkpt><trkpt lat="44.63454294502839" lon="10.068020239373935"><ele>508.0</ele><time>2026-05-02T08:44:12.001Z</time></trkpt><trkpt lat="44.634431195361" lon="10.0680417576788"><ele>507.0</ele><time>2026-05-02T08:44:14.001Z</time></trkpt><trkpt lat="44.63433525991147" lon="10.068105450582943"><ele>506.0</ele><time>2026-05-02T08:44:16.001Z</time></trkpt><trkpt lat="44.63427136891524" lon="10.068132273250654"><ele>505.0</ele><time>2026-05-02T08:44:20.001Z</time></trkpt><trkpt lat="44.634248093307704" lon="10.06823065744205"><ele>504.0</ele><time>2026-05-02T08:44:30.001Z</time></trkpt><trkpt lat="44.63420254193394" lon="10.068367577918508"><ele>504.0</ele><time>2026-05-02T08:44:32.001Z</time></trkpt><trkpt lat="44.634172134558874" lon="10.06848449851603"><ele>504.0</ele><time>2026-05-02T08:44:33.001Z</time></trkpt><trkpt lat="44.63414349011572" lon="10.068587541551542"><ele>504.0</ele><time>2026-05-02T08:44:34.001Z</time></trkpt><trkpt lat="44.634128158636436" lon="10.068679832744916"><ele>504.0</ele><time>2026-05-02T08:44:35.001Z</time></trkpt><trkpt lat="44.63412031156619" lon="10.068836881333398"><ele>504.0</ele><time>2026-05-02T08:44:37.001Z</time></trkpt><trkpt lat="44.6341410071534" lon="10.06902652622485"><ele>504.3333333333333</ele><time>2026-05-02T08:44:39.001Z</time></trkpt><trkpt lat="44.634163073710305" lon="10.069138842517136"><ele>504.66666666666663</ele><time>2026-05-02T08:44:40Z</time></trkpt><trkpt lat="44.63419210492214" lon="10.069237129980433"><ele>505.0</ele><time>2026-05-02T08:44:41Z</time></trkpt><trkpt lat="44.63420596279938" lon="10.069342972945174"><ele>505.3333333333333</ele><time>2026-05-02T08:44:42Z</time></trkpt><trkpt lat="44.634247849416305" lon="10.06946502899387"><ele>505.66666666666663</ele><time>2026-05-02T08:44:44Z</time></trkpt><trkpt lat="44.63429985008253" lon="10.069584053623164"><ele>506.0</ele><time>2026-05-02T08:44:46Z</time></trkpt><trkpt lat="44.63431333604864" lon="10.069746984497879"><ele>506.0</ele><time>2026-05-02T08:44:48Z</time></trkpt><trkpt lat="44.63431035632342" lon="10.069838745009573"><ele>506.0</ele><time>2026-05-02T08:44:49Z</time></trkpt><trkpt lat="44.6342564885525" lon="10.070001156795875"><ele>506.0</ele><time>2026-05-02T08:44:51Z</time></trkpt><trkpt lat="44.63418261483065" lon="10.070118528727868"><ele>506.0</ele><time>2026-05-02T08:44:53Z</time></trkpt><trkpt lat="44.63408823045576" lon="10.070156320375075"><ele>506.0</ele><time>2026-05-02T08:44:55Z</time></trkpt><trkpt lat="44.633997186276254" lon="10.070117774541824"><ele>507.20000000000005</ele><time>2026-05-02T08:44:57Z</time></trkpt><trkpt lat="44.63397744115962" lon="10.07022568023669"><ele>508.40000000000003</ele><time>2026-05-02T08:45:05Z</time></trkpt><trkpt lat="44.63392307917435" lon="10.07040568791908"><ele>509.6</ele><time>2026-05-02T08:45:07Z</time></trkpt><trkpt lat="44.63387175982499" lon="10.070560033559211"><ele>510.8</ele><time>2026-05-02T08:45:08Z</time></trkpt><trkpt lat="44.63385107568016" lon="10.070654693922338"><ele>512.0</ele><time>2026-05-02T08:45:09Z</time></trkpt><trkpt lat="44.63381554837628" lon="10.070784027111992"><ele>512.6</ele><time>2026-05-02T08:45:10Z</time></trkpt><trkpt lat="44.63376913882755" lon="10.070911204855419"><ele>513.2</ele><time>2026-05-02T08:45:11Z</time></trkpt><trkpt lat="44.633705245484876" lon="10.071051451776219"><ele>513.8</ele><time>2026-05-02T08:45:12Z</time></trkpt><trkpt lat="44.63366484463645" lon="10.071182676293692"><ele>514.4</ele><time>2026-05-02T08:45:14Z</time></trkpt><trkpt lat="44.633627530868324" lon="10.071264125624685"><ele>515.0</ele><time>2026-05-02T08:45:15Z</time></trkpt><trkpt lat="44.633574067897314" lon="10.071359133638142"><ele>515.0</ele><time>2026-05-02T08:45:16Z</time></trkpt><trkpt lat="44.6335058645643" lon="10.071443798458965"><ele>515.0</ele><time>2026-05-02T08:45:17Z</time></trkpt><trkpt lat="44.63343123840016" lon="10.071560862076595"><ele>515.0</ele><time>2026-05-02T08:45:18Z</time></trkpt><trkpt lat="44.63336542220661" lon="10.071666518352165"><ele>515.0</ele><time>2026-05-02T08:45:19Z</time></trkpt><trkpt lat="44.63331119845443" lon="10.071754270530302"><ele>515.0</ele><time>2026-05-02T08:45:20Z</time></trkpt><trkpt lat="44.63324283573848" lon="10.071862915193183"><ele>515.8</ele><time>2026-05-02T08:45:21Z</time></trkpt><trkpt lat="44.63320596127673" lon="10.071950768535816"><ele>516.6</ele><time>2026-05-02T08:45:22Z</time></trkpt><trkpt lat="44.63313336212876" lon="10.072066040069972"><ele>517.4</ele><time>2026-05-02T08:45:24Z</time></trkpt><trkpt lat="44.633075717023935" lon="10.072105999631857"><ele>518.2</ele><time>2026-05-02T08:45:26Z</time></trkpt><trkpt lat="44.632985599256024" lon="10.071989501008078"><ele>519.0</ele><time>2026-05-02T08:45:29Z</time></trkpt><trkpt lat="44.63291582508945" lon="10.071857080048714"><ele>519.0</ele><time>2026-05-02T08:45:31Z</time></trkpt><trkpt lat="44.63282028705007" lon="10.071772629746526"><ele>519.0</ele><time>2026-05-02T08:45:33Z</time></trkpt><trkpt lat="44.632757302503464" lon="10.071736705818674"><ele>519.0</ele><time>2026-05-02T08:45:34Z</time></trkpt><trkpt lat="44.63269143907014" lon="10.071706131510368"><ele>519.0</ele><time>2026-05-02T08:45:35Z</time></trkpt><trkpt lat="44.63263320516978" lon="10.071669818190424"><ele>519.0</ele><time>2026-05-02T08:45:36Z</time></trkpt><trkpt lat="44.63258234572526" lon="10.071617123533285"><ele>519.0</ele><time>2026-05-02T08:45:37Z</time></trkpt><trkpt lat="44.632521064844646" lon="10.071579363597051"><ele>519.0</ele><time>2026-05-02T08:45:38Z</time></trkpt><trkpt lat="44.63246028265173" lon="10.071548340074267"><ele>517.1666666666666</ele><time>2026-05-02T08:45:39Z</time></trkpt><trkpt lat="44.63233881866714" lon="10.071467375883765"><ele>515.3333333333334</ele><time>2026-05-02T08:45:41Z</time></trkpt><trkpt lat="44.63227174242934" lon="10.071430509031778"><ele>513.5</ele><time>2026-05-02T08:45:42Z</time></trkpt><trkpt lat="44.63220084029712" lon="10.07140635110525"><ele>511.6666666666667</ele><time>2026-05-02T08:45:43Z</time></trkpt><trkpt lat="44.632125612608924" lon="10.071376719102682"><ele>509.83333333333337</ele><time>2026-05-02T08:45:44Z</time></trkpt><trkpt lat="44.63206056831872" lon="10.071339712611152"><ele>508.0</ele><time>2026-05-02T08:45:45Z</time></trkpt><trkpt lat="44.63199259133222" lon="10.07128556513693"><ele>508.59999999999997</ele><time>2026-05-02T08:45:46Z</time></trkpt><trkpt lat="44.63193320413314" lon="10.071239046061155"><ele>509.19999999999993</ele><time>2026-05-02T08:45:47Z</time></trkpt><trkpt lat="44.63185670325299" lon="10.071178426204982"><ele>509.8</ele><time>2026-05-02T08:45:48Z</time></trkpt><trkpt lat="44.6317357315043" lon="10.071155823199906"><ele>510.4</ele><time>2026-05-02T08:45:50Z</time></trkpt><trkpt lat="44.631619966124994" lon="10.07112177016508"><ele>511.0</ele><time>2026-05-02T08:45:52Z</time></trkpt><trkpt lat="44.63151070546196" lon="10.071051437253933"><ele>511.0</ele><time>2026-05-02T08:45:54.001Z</time></trkpt><trkpt lat="44.6314105943661" lon="10.070984053649756"><ele>511.0</ele><time>2026-05-02T08:45:56.001Z</time></trkpt><trkpt lat="44.63130624294003" lon="10.070877227108504"><ele>511.0</ele><time>2026-05-02T08:45:58.001Z</time></trkpt><trkpt lat="44.63125887171228" lon="10.07080146008278"><ele>511.0</ele><time>2026-05-02T08:45:59.001Z</time></trkpt><trkpt lat="44.6311954656103" lon="10.070757357316577"><ele>511.0</ele><time>2026-05-02T08:46:00.001Z</time></trkpt><trkpt lat="44.63112180603433" lon="10.070719246744442"><ele>510.83333333333337</ele><time>2026-05-02T08:46:01.001Z</time></trkpt><trkpt lat="44.63104830272831" lon="10.07068199413395"><ele>510.6666666666667</ele><time>2026-05-02T08:46:02.001Z</time></trkpt><trkpt lat="44.630976940367944" lon="10.07064472604891"><ele>510.5</ele><time>2026-05-02T08:46:03.001Z</time></trkpt><trkpt lat="44.630909937636225" lon="10.070617434681608"><ele>510.33333333333337</ele><time>2026-05-02T08:46:04.001Z</time></trkpt><trkpt lat="44.63080015223977" lon="10.070538381099956"><ele>510.1666666666667</ele><time>2026-05-02T08:46:06.001Z</time></trkpt><trkpt lat="44.63073606045151" lon="10.07050204399879"><ele>510.0</ele><time>2026-05-02T08:46:07.001Z</time></trkpt><trkpt lat="44.63065920752876" lon="10.070410717743098"><ele>510.0</ele><time>2026-05-02T08:46:09.001Z</time></trkpt><trkpt lat="44.63058203662138" lon="10.070339254779508"><ele>510.0</ele><time>2026-05-02T08:46:11.001Z</time></trkpt><trkpt lat="44.630489811582464" lon="10.070279803067175"><ele>510.0</ele><time>2026-05-02T08:46:13.001Z</time></trkpt><trkpt lat="44.630384915094716" lon="10.070253065294068"><ele>510.0</ele><time>2026-05-02T08:46:15.001Z</time></trkpt><trkpt lat="44.6302755125349" lon="10.070275742878074"><ele>510.0</ele><time>2026-05-02T08:46:17.001Z</time></trkpt><trkpt lat="44.630211485119176" lon="10.070279867171934"><ele>511.2</ele><time>2026-05-02T08:46:18.001Z</time></trkpt><trkpt lat="44.630106775884734" lon="10.070238693365303"><ele>512.4</ele><time>2026-05-02T08:46:20.001Z</time></trkpt><trkpt lat="44.62999185123397" lon="10.070203437691674"><ele>513.6</ele><time>2026-05-02T08:46:22Z</time></trkpt><trkpt lat="44.629897197214696" lon="10.070186907135659"><ele>514.8</ele><time>2026-05-02T08:46:24Z</time></trkpt><trkpt lat="44.62982151751554" lon="10.0702150019796"><ele>516.0</ele><time>2026-05-02T08:46:28Z</time></trkpt><trkpt lat="44.62975591597617" lon="10.07019789361208"><ele>516.0</ele><time>2026-05-02T08:48:57Z</time></trkpt><trkpt lat="44.62969316376998" lon="10.070176166225979"><ele>516.0</ele><time>2026-05-02T08:48:59Z</time></trkpt><trkpt lat="44.629614630337414" lon="10.07016650605259"><ele>516.0</ele><time>2026-05-02T08:49:01Z</time></trkpt><trkpt lat="44.629548049020265" lon="10.070425395621836"><ele>516.0</ele><time>2026-05-02T08:49:02Z</time></trkpt><trkpt lat="44.62944399604196" lon="10.070437920480378"><ele>516.0</ele><time>2026-05-02T08:49:04Z</time></trkpt><trkpt lat="44.62935720785141" lon="10.070410840738523"><ele>516.0</ele><time>2026-05-02T08:49:06Z</time></trkpt><trkpt lat="44.629285342872144" lon="10.070405799870535"><ele>516.0</ele><time>2026-05-02T08:49:08Z</time></trkpt><trkpt lat="44.62920596714345" lon="10.070384079690056"><ele>516.0</ele><time>2026-05-02T08:49:10Z</time></trkpt><trkpt lat="44.629124158516795" lon="10.070290044731248"><ele>516.0</ele><time>2026-05-02T08:49:12Z</time></trkpt><trkpt lat="44.629039437379525" lon="10.07020887788193"><ele>516.0</ele><time>2026-05-02T08:49:14Z</time></trkpt><trkpt lat="44.62895034345351" lon="10.070141857243902"><ele>516.0</ele><time>2026-05-02T08:49:16Z</time></trkpt><trkpt lat="44.628858691785524" lon="10.07011803734615"><ele>516.0</ele><time>2026-05-02T08:49:18Z</time></trkpt><trkpt lat="44.62879577961076" lon="10.070108036148412"><ele>516.0</ele><time>2026-05-02T08:49:19Z</time></trkpt><trkpt lat="44.62869753252657" lon="10.070078035954149"><ele>516.0</ele><time>2026-05-02T08:49:21Z</time></trkpt><trkpt lat="44.628611759787745" lon="10.070049600260354"><ele>516.0</ele><time>2026-05-02T08:49:23Z</time></trkpt><trkpt lat="44.628555748361464" lon="10.070007338451873"><ele>516.0</ele><time>2026-05-02T08:49:56Z</time></trkpt><trkpt lat="44.62849914711221" lon="10.069965418089692"><ele>517.0</ele><time>2026-05-02T08:52:53.999Z</time></trkpt><trkpt lat="44.62844218941655" lon="10.069897751993606"><ele>506.0</ele><time>2026-05-02T08:52:59.999Z</time></trkpt><trkpt lat="44.62838153917537" lon="10.06983322266453"><ele>506.0</ele><time>2026-05-02T08:53:04.999Z</time></trkpt></trkseg><trkseg><trkpt lat="44.627226304276064" lon="10.069690594381157"><ele>520.0</ele><time>2026-05-02T09:09:09Z</time></trkpt><trkpt lat="44.62715316574804" lon="10.06966778318742"><ele>520.0</ele><time>2026-05-02T09:09:12Z</time></trkpt><trkpt lat="44.627099304781616" lon="10.069605125303378"><ele>520.0</ele><time>2026-05-02T09:09:41Z</time></trkpt><trkpt lat="44.626992801839855" lon="10.069453787474375"><ele>520.0</ele><time>2026-05-02T09:09:43Z</time></trkpt><trkpt lat="44.626911758974956" lon="10.06938433265218"><ele>520.0</ele><time>2026-05-02T09:09:44Z</time></trkpt><trkpt lat="44.62708724092568" lon="10.06954406013648"><ele>520.0000000000001</ele><time>2026-05-02T09:09:45Z</time></trkpt><trkpt lat="44.62710705101424" lon="10.069631878752277"><ele>520.0</ele><time>2026-05-02T09:10:38Z</time></trkpt><trkpt lat="44.6271799508512" lon="10.069685735868175"><ele>520.0</ele><time>2026-05-02T09:10:41Z</time></trkpt><trkpt lat="44.62724415542065" lon="10.06973839156212"><ele>520.0</ele><time>2026-05-02T09:10:44Z</time></trkpt><trkpt lat="44.6272494602514" lon="10.06983005492454"><ele>520.0</ele><time>2026-05-02T09:10:53Z</time></trkpt><trkpt lat="44.62726344684462" lon="10.069934192824984"><ele>520.0000000000001</ele><time>2026-05-02T09:10:55Z</time></trkpt><trkpt lat="44.627286747473605" lon="10.070026579693389"><ele>520.0</ele><time>2026-05-02T09:10:57Z</time></trkpt><trkpt lat="44.62732069886859" lon="10.070130091025518"><ele>520.0</ele><time>2026-05-02T09:10:59Z</time></trkpt><trkpt lat="44.62737137005054" lon="10.07022350278305"><ele>520.0</ele><time>2026-05-02T09:11:01Z</time></trkpt><trkpt lat="44.62745373959774" lon="10.070251233877292"><ele>520.0</ele><time>2026-05-02T09:11:03Z</time></trkpt><trkpt lat="44.627549010887854" lon="10.070282974656477"><ele>520.0</ele><time>2026-05-02T09:11:05Z</time></trkpt><trkpt lat="44.627633564731454" lon="10.070275470101553"><ele>520.0</ele><time>2026-05-02T09:11:07Z</time></trkpt><trkpt lat="44.62770960381627" lon="10.07021703287037"><ele>520.0</ele><time>2026-05-02T09:11:09Z</time></trkpt><trkpt lat="44.627768132027015" lon="10.070166070565024"><ele>519.4</ele><time>2026-05-02T09:11:12Z</time></trkpt><trkpt lat="44.62786037586075" lon="10.070196755059849"><ele>518.8</ele><time>2026-05-02T09:11:15Z</time></trkpt><trkpt lat="44.627921798008764" lon="10.070246745918556"><ele>518.2</ele><time>2026-05-02T09:11:17Z</time></trkpt><trkpt lat="44.62799966127096" lon="10.070240081799684"><ele>517.6</ele><time>2026-05-02T09:11:20Z</time></trkpt><trkpt lat="44.62806525473607" lon="10.070153047410772"><ele>517.0</ele><time>2026-05-02T09:11:22Z</time></trkpt><trkpt lat="44.62826229845432" lon="10.070023160353774"><ele>517.0</ele><time>2026-05-02T09:11:24Z</time></trkpt><trkpt lat="44.62830457813206" lon="10.069899199909308"><ele>517.0</ele><time>2026-05-02T09:11:26Z</time></trkpt><trkpt lat="44.62840564642181" lon="10.069886908356716"><ele>517.0</ele><time>2026-05-02T09:11:28Z</time></trkpt><trkpt lat="44.62849595838932" lon="10.069954416778307"><ele>517.0</ele><time>2026-05-02T09:11:30Z</time></trkpt><trkpt lat="44.62855729488084" lon="10.070038612967755"><ele>517.0</ele><time>2026-05-02T09:11:32Z</time></trkpt><trkpt lat="44.62867776870187" lon="10.070052982318574"><ele>516.8000000000001</ele><time>2026-05-02T09:11:34Z</time></trkpt><trkpt lat="44.62874520572188" lon="10.070089989607112"><ele>516.6</ele><time>2026-05-02T09:11:35Z</time></trkpt><trkpt lat="44.628819092205205" lon="10.070118320467957"><ele>516.4000000000001</ele><time>2026-05-02T09:11:36Z</time></trkpt><trkpt lat="44.62889776373277" lon="10.070131490520694"><ele>516.2</ele><time>2026-05-02T09:11:37Z</time></trkpt><trkpt lat="44.628960169906144" lon="10.070145614924241"><ele>516.0</ele><time>2026-05-02T09:11:38Z</time></trkpt><trkpt lat="44.62910630550245" lon="10.070250592243488"><ele>516.0</ele><time>2026-05-02T09:11:41Z</time></trkpt><trkpt lat="44.62919715702671" lon="10.070370061726154"><ele>516.0</ele><time>2026-05-02T09:11:43Z</time></trkpt><trkpt lat="44.62929294031551" lon="10.070435983206986"><ele>516.0</ele><time>2026-05-02T09:11:45Z</time></trkpt><trkpt lat="44.629419992401594" lon="10.0704503485243"><ele>516.0</ele><time>2026-05-02T09:11:47Z</time></trkpt><trkpt lat="44.62954016541024" lon="10.070454839946258"><ele>516.0</ele><time>2026-05-02T09:11:49Z</time></trkpt><trkpt lat="44.62961050281992" lon="10.070416471880073"><ele>516.0</ele><time>2026-05-02T09:11:50Z</time></trkpt><trkpt lat="44.62968404140701" lon="10.070391634301277"><ele>516.0</ele><time>2026-05-02T09:11:51Z</time></trkpt><trkpt lat="44.62977108984081" lon="10.070331614459377"><ele>516.0</ele><time>2026-05-02T09:11:53Z</time></trkpt><trkpt lat="44.62981620606888" lon="10.070232012098169"><ele>516.0</ele><time>2026-05-02T09:11:56Z</time></trkpt><trkpt lat="44.62990367802935" lon="10.070241623580342"><ele>516.0</ele><time>2026-05-02T09:17:39Z</time></trkpt><trkpt lat="44.630000691486636" lon="10.070230520258436"><ele>516.0</ele><time>2026-05-02T09:17:41Z</time></trkpt><trkpt lat="44.63009860531312" lon="10.070268595169651"><ele>516.0</ele><time>2026-05-02T09:17:43Z</time></trkpt><trkpt lat="44.63016125658275" lon="10.070291600747954"><ele>516.0</ele><time>2026-05-02T09:17:44Z</time></trkpt><trkpt lat="44.63025926268014" lon="10.070304824326971"><ele>516.0</ele><time>2026-05-02T09:17:46Z</time></trkpt><trkpt lat="44.630366613004064" lon="10.070294102017229"><ele>516.0</ele><time>2026-05-02T09:17:48Z</time></trkpt><trkpt lat="44.63046950624635" lon="10.070320127227745"><ele>514.8</ele><time>2026-05-02T09:17:50Z</time></trkpt><trkpt lat="44.630559469391656" lon="10.070338173101344"><ele>513.6</ele><time>2026-05-02T09:17:52Z</time></trkpt><trkpt lat="44.63063543703583" lon="10.070419093787573"><ele>512.4</ele><time>2026-05-02T09:17:54Z</time></trkpt><trkpt lat="44.63070374062239" lon="10.070516431449663"><ele>511.2</ele><time>2026-05-02T09:17:56Z</time></trkpt><trkpt lat="44.630791032326364" lon="10.07059628967755"><ele>510.0</ele><time>2026-05-02T09:17:58Z</time></trkpt><trkpt lat="44.63088671415622" lon="10.070647705063172"><ele>510.0</ele><time>2026-05-02T09:18:00Z</time></trkpt><trkpt lat="44.63098219507816" lon="10.070702887886172"><ele>510.0</ele><time>2026-05-02T09:18:02Z</time></trkpt><trkpt lat="44.631082419855254" lon="10.070765050010161"><ele>510.0</ele><time>2026-05-02T09:18:04Z</time></trkpt><trkpt lat="44.6311841494272" lon="10.07082014835671"><ele>510.0</ele><time>2026-05-02T09:18:06Z</time></trkpt><trkpt lat="44.63129534114456" lon="10.070894421567186"><ele>510.0</ele><time>2026-05-02T09:18:08Z</time></trkpt><trkpt lat="44.63138493143629" lon="10.070973290853177"><ele>510.1666666666667</ele><time>2026-05-02T09:18:10Z</time></trkpt><trkpt lat="44.63144233892091" lon="10.071034522001186"><ele>510.33333333333337</ele><time>2026-05-02T09:18:11Z</time></trkpt><trkpt lat="44.631500942914286" lon="10.071084971378024"><ele>510.5</ele><time>2026-05-02T09:18:12Z</time></trkpt><trkpt lat="44.63156941993646" lon="10.071121041540776"><ele>510.6666666666667</ele><time>2026-05-02T09:18:13Z</time></trkpt><trkpt lat="44.631653803760706" lon="10.071140576166144"><ele>510.83333333333337</ele><time>2026-05-02T09:18:14Z</time></trkpt><trkpt lat="44.63174241646837" lon="10.07118251890438"><ele>511.0</ele><time>2026-05-02T09:18:15Z</time></trkpt><trkpt lat="44.6318285513456" lon="10.071211735610179"><ele>511.00000000000006</ele><time>2026-05-02T09:18:16Z</time></trkpt><trkpt lat="44.6319135980642" lon="10.071238807378109"><ele>511.0</ele><time>2026-05-02T09:18:17Z</time></trkpt><trkpt lat="44.63197668814418" lon="10.071308436577828"><ele>511.0</ele><time>2026-05-02T09:18:18Z</time></trkpt><trkpt lat="44.632058833083676" lon="10.071349282171434"><ele>511.0</ele><time>2026-05-02T09:18:19Z</time></trkpt><trkpt lat="44.63213101175388" lon="10.071408097606962"><ele>511.00000000000006</ele><time>2026-05-02T09:18:20Z</time></trkpt><trkpt lat="44.63221902685366" lon="10.071454214948574"><ele>511.0</ele><time>2026-05-02T09:18:21Z</time></trkpt><trkpt lat="44.63230204580629" lon="10.071484232798815"><ele>510.4</ele><time>2026-05-02T09:18:22Z</time></trkpt><trkpt lat="44.63237996551511" lon="10.071546072501338"><ele>509.8</ele><time>2026-05-02T09:18:23Z</time></trkpt><trkpt lat="44.632465655602935" lon="10.071597054862744"><ele>509.19999999999993</ele><time>2026-05-02T09:18:24Z</time></trkpt><trkpt lat="44.6325530811304" lon="10.071653319808537"><ele>508.59999999999997</ele><time>2026-05-02T09:18:25Z</time></trkpt><trkpt lat="44.63265057315045" lon="10.071715285146556"><ele>508.0</ele><time>2026-05-02T09:18:26Z</time></trkpt><trkpt lat="44.63274110709336" lon="10.071761379294323"><ele>510.2</ele><time>2026-05-02T09:18:27Z</time></trkpt><trkpt lat="44.632844788678064" lon="10.07185876150841"><ele>512.4</ele><time>2026-05-02T09:18:28Z</time></trkpt><trkpt lat="44.63294548253988" lon="10.071974365383745"><ele>514.5999999999999</ele><time>2026-05-02T09:18:29Z</time></trkpt><trkpt lat="44.6330136883714" lon="10.07208807275655"><ele>516.8</ele><time>2026-05-02T09:18:32Z</time></trkpt><trkpt lat="44.63305975436356" lon="10.072194421142305"><ele>519.0</ele><time>2026-05-02T09:18:34Z</time></trkpt><trkpt lat="44.633085058712" lon="10.072295809955811"><ele>519.0</ele><time>2026-05-02T09:18:36Z</time></trkpt><trkpt lat="44.63299768504128" lon="10.072336809610762"><ele>519.0</ele><time>2026-05-02T09:18:37Z</time></trkpt><trkpt lat="44.632894441222035" lon="10.072430958914905"><ele>519.0</ele><time>2026-05-02T09:18:39Z</time></trkpt><trkpt lat="44.632825264933786" lon="10.07248979754971"><ele>519.0</ele><time>2026-05-02T09:18:40Z</time></trkpt><trkpt lat="44.63275334211407" lon="10.072552931800367"><ele>519.0</ele><time>2026-05-02T09:18:41Z</time></trkpt><trkpt lat="44.632681675017565" lon="10.07264130041263"><ele>521.1666666666666</ele><time>2026-05-02T09:18:42Z</time></trkpt><trkpt lat="44.63260267454834" lon="10.072694962376442"><ele>523.3333333333334</ele><time>2026-05-02T09:18:43Z</time></trkpt><trkpt lat="44.63253862068355" lon="10.072748381553573"><ele>525.5</ele><time>2026-05-02T09:18:44Z</time></trkpt><trkpt lat="44.63247870410645" lon="10.072779010996237"><ele>527.6666666666667</ele><time>2026-05-02T09:18:45Z</time></trkpt><trkpt lat="44.63241453867531" lon="10.072795175457216"><ele>529.8333333333334</ele><time>2026-05-02T09:18:46Z</time></trkpt><trkpt lat="44.63233685836551" lon="10.072796525458484"><ele>532.0</ele><time>2026-05-02T09:18:47Z</time></trkpt><trkpt lat="44.632252646553795" lon="10.072813055118434"><ele>532.0</ele><time>2026-05-02T09:18:48Z</time></trkpt><trkpt lat="44.6321538792052" lon="10.072837094784958"><ele>532.0</ele><time>2026-05-02T09:18:49Z</time></trkpt><trkpt lat="44.632050065047" lon="10.072878886223194"><ele>532.0</ele><time>2026-05-02T09:18:50Z</time></trkpt><trkpt lat="44.63194305049145" lon="10.072918852359122"><ele>532.0</ele><time>2026-05-02T09:18:51Z</time></trkpt><trkpt lat="44.631856082121914" lon="10.072954360785953"><ele>532.0</ele><time>2026-05-02T09:18:52Z</time></trkpt><trkpt lat="44.631773052795204" lon="10.072959729891886"><ele>533.75</ele><time>2026-05-02T09:18:53Z</time></trkpt><trkpt lat="44.63169175017064" lon="10.072961487919383"><ele>535.5</ele><time>2026-05-02T09:18:54Z</time></trkpt><trkpt lat="44.63148096226643" lon="10.072950800738111"><ele>537.25</ele><time>2026-05-02T09:18:56Z</time></trkpt><trkpt lat="44.631386232266415" lon="10.072945816968636"><ele>539.0</ele><time>2026-05-02T09:18:57Z</time></trkpt><trkpt lat="44.63129766671495" lon="10.072947162925217"><ele>539.0</ele><time>2026-05-02T09:18:58Z</time></trkpt><trkpt lat="44.63120518244449" lon="10.072962133448204"><ele>539.0</ele><time>2026-05-02T09:18:59Z</time></trkpt><trkpt lat="44.63109704555992" lon="10.072958814977868"><ele>539.0</ele><time>2026-05-02T09:19:00Z</time></trkpt><trkpt lat="44.63098110297472" lon="10.072965953139091"><ele>539.0</ele><time>2026-05-02T09:19:01Z</time></trkpt><trkpt lat="44.63086787008754" lon="10.072964061272119"><ele>539.0</ele><time>2026-05-02T09:19:02Z</time></trkpt><trkpt lat="44.63076963289076" lon="10.07297856581449"><ele>540.8</ele><time>2026-05-02T09:19:03Z</time></trkpt><trkpt lat="44.63066392595362" lon="10.073000672263287"><ele>542.5999999999999</ele><time>2026-05-02T09:19:04Z</time></trkpt><trkpt lat="44.63054996621376" lon="10.073021502150205"><ele>544.4</ele><time>2026-05-02T09:19:05Z</time></trkpt><trkpt lat="44.63043956825276" lon="10.073037690614347"><ele>546.1999999999999</ele><time>2026-05-02T09:19:06Z</time></trkpt><trkpt lat="44.63033042958256" lon="10.073039938844117"><ele>548.0</ele><time>2026-05-02T09:19:07Z</time></trkpt><trkpt lat="44.6302304422071" lon="10.073055057469587"><ele>549.1999999999999</ele><time>2026-05-02T09:19:08Z</time></trkpt><trkpt lat="44.6301405954955" lon="10.073065335878395"><ele>550.4</ele><time>2026-05-02T09:19:09Z</time></trkpt><trkpt lat="44.6300424588877" lon="10.073105748698813"><ele>551.5999999999999</ele><time>2026-05-02T09:19:11Z</time></trkpt><trkpt lat="44.62993963700014" lon="10.073167422721985"><ele>552.8</ele><time>2026-05-02T09:19:13Z</time></trkpt><trkpt lat="44.62981874515543" lon="10.073251695313553"><ele>554.0</ele><time>2026-05-02T09:19:15Z</time></trkpt><trkpt lat="44.62974480479699" lon="10.073283510751075"><ele>556.0</ele><time>2026-05-02T09:19:16Z</time></trkpt><trkpt lat="44.62967416490332" lon="10.073330639010232"><ele>558.0</ele><time>2026-05-02T09:19:17Z</time></trkpt><trkpt lat="44.62960569512201" lon="10.073376319460232"><ele>560.0</ele><time>2026-05-02T09:19:18Z</time></trkpt><trkpt lat="44.62952021758959" lon="10.073426269467044"><ele>562.0</ele><time>2026-05-02T09:19:19Z</time></trkpt><trkpt lat="44.6294151929117" lon="10.073510377008917"><ele>564.0</ele><time>2026-05-02T09:19:20Z</time></trkpt><trkpt lat="44.629313957580294" lon="10.073554798952205"><ele>564.0</ele><time>2026-05-02T09:19:21Z</time></trkpt><trkpt lat="44.62936313885948" lon="10.073638905510691"><ele>564.0</ele><time>2026-05-02T09:19:27Z</time></trkpt><trkpt lat="44.62941915367039" lon="10.07373392918784"><ele>564.0</ele><time>2026-05-02T09:21:25Z</time></trkpt><trkpt lat="44.629406033512986" lon="10.073877370251882"><ele>564.0</ele><time>2026-05-02T09:21:27Z</time></trkpt><trkpt lat="44.629430946957456" lon="10.07396547333003"><ele>564.0</ele><time>2026-05-02T09:21:29Z</time></trkpt><trkpt lat="44.62945311667956" lon="10.074054709186898"><ele>564.0</ele><time>2026-05-02T09:21:32Z</time></trkpt><trkpt lat="44.62956291237428" lon="10.073896301528592"><ele>564.0</ele><time>2026-05-02T09:21:37Z</time></trkpt><trkpt lat="44.629620646325" lon="10.073753738018423"><ele>564.0</ele><time>2026-05-02T09:21:39Z</time></trkpt><trkpt lat="44.62971691772152" lon="10.073612675426457"><ele>564.0</ele><time>2026-05-02T09:21:41Z</time></trkpt><trkpt lat="44.629775071160985" lon="10.073486733497525"><ele>564.0</ele><time>2026-05-02T09:21:43Z</time></trkpt><trkpt lat="44.629845671752896" lon="10.073354709996416"><ele>561.5</ele><time>2026-05-02T09:21:45Z</time></trkpt><trkpt lat="44.62989863049571" lon="10.073235621113627"><ele>559.0</ele><time>2026-05-02T09:21:47Z</time></trkpt><trkpt lat="44.62997648700708" lon="10.073130500816733"><ele>556.5</ele><time>2026-05-02T09:21:49Z</time></trkpt><trkpt lat="44.63009486009806" lon="10.073111675937314"><ele>554.0</ele><time>2026-05-02T09:21:51Z</time></trkpt><trkpt lat="44.63022087711798" lon="10.073103425829487"><ele>554.0</ele><time>2026-05-02T09:21:53Z</time></trkpt><trkpt lat="44.63028487985068" lon="10.07309172391023"><ele>554.0</ele><time>2026-05-02T09:21:54Z</time></trkpt><trkpt lat="44.6303578379452" lon="10.073080049363723"><ele>554.0</ele><time>2026-05-02T09:21:55Z</time></trkpt><trkpt lat="44.63043051319914" lon="10.073066746451765"><ele>554.0</ele><time>2026-05-02T09:21:56Z</time></trkpt><trkpt lat="44.63050417824367" lon="10.073061762601341"><ele>554.0</ele><time>2026-05-02T09:21:57Z</time></trkpt><trkpt lat="44.630577862892785" lon="10.07305526773023"><ele>554.0</ele><time>2026-05-02T09:21:58Z</time></trkpt><trkpt lat="44.63065449458884" lon="10.073043097300864"><ele>554.0</ele><time>2026-05-02T09:21:59Z</time></trkpt><trkpt lat="44.63073163287468" lon="10.073025719306594"><ele>553.0</ele><time>2026-05-02T09:22:00Z</time></trkpt><trkpt lat="44.63081736641501" lon="10.073008799603558"><ele>552.0</ele><time>2026-05-02T09:22:01Z</time></trkpt><trkpt lat="44.630901446847" lon="10.072987512614949"><ele>551.0</ele><time>2026-05-02T09:22:02Z</time></trkpt><trkpt lat="44.63098566086925" lon="10.072998472538115"><ele>550.0</ele><time>2026-05-02T09:22:03Z</time></trkpt><trkpt lat="44.63105120504947" lon="10.072997225679597"><ele>549.0</ele><time>2026-05-02T09:22:04Z</time></trkpt><trkpt lat="44.631114990706855" lon="10.072977400977855"><ele>548.0</ele><time>2026-05-02T09:22:05Z</time></trkpt><trkpt lat="44.631179364149666" lon="10.072987207160626"><ele>546.1999999999999</ele><time>2026-05-02T09:22:06Z</time></trkpt><trkpt lat="44.63124894136225" lon="10.072979465145053"><ele>544.4</ele><time>2026-05-02T09:22:07Z</time></trkpt><trkpt lat="44.631319470962396" lon="10.072984089442906"><ele>542.5999999999999</ele><time>2026-05-02T09:22:08Z</time></trkpt><trkpt lat="44.631435378269536" lon="10.07299005551633"><ele>540.8</ele><time>2026-05-02T09:22:10Z</time></trkpt><trkpt lat="44.63154587121066" lon="10.07299530291386"><ele>539.0</ele><time>2026-05-02T09:22:12Z</time></trkpt><trkpt lat="44.63166599848435" lon="10.073017449228656"><ele>539.0</ele><time>2026-05-02T09:22:14Z</time></trkpt><trkpt lat="44.63178065492298" lon="10.073014998353736"><ele>539.0</ele><time>2026-05-02T09:22:16Z</time></trkpt><trkpt lat="44.63189140201174" lon="10.072988081535943"><ele>539.0</ele><time>2026-05-02T09:22:18Z</time></trkpt><trkpt lat="44.63199323048015" lon="10.072948365557405"><ele>539.0</ele><time>2026-05-02T09:22:20Z</time></trkpt><trkpt lat="44.63205539089613" lon="10.072907032599574"><ele>539.0</ele><time>2026-05-02T09:22:21Z</time></trkpt><trkpt lat="44.63211620653784" lon="10.072877430270415"><ele>537.8333333333333</ele><time>2026-05-02T09:22:22Z</time></trkpt><trkpt lat="44.63217961095181" lon="10.07287665562247"><ele>536.6666666666666</ele><time>2026-05-02T09:22:23Z</time></trkpt><trkpt lat="44.63224484334007" lon="10.072843579966356"><ele>535.5</ele><time>2026-05-02T09:22:24Z</time></trkpt><trkpt lat="44.63231075848775" lon="10.072833734448174"><ele>534.3333333333334</ele><time>2026-05-02T09:22:25Z</time></trkpt><trkpt lat="44.63242996363916" lon="10.072836376131049"><ele>533.1666666666667</ele><time>2026-05-02T09:22:27Z</time></trkpt><trkpt lat="44.63253475812112" lon="10.072798629443325"><ele>532.0</ele><time>2026-05-02T09:22:29Z</time></trkpt><trkpt lat="44.63263839112476" lon="10.072694512724844"><ele>532.0</ele><time>2026-05-02T09:22:31Z</time></trkpt><trkpt lat="44.632735227244396" lon="10.072621880054589"><ele>532.0</ele><time>2026-05-02T09:22:33Z</time></trkpt><trkpt lat="44.63281665304741" lon="10.072524885606686"><ele>532.0</ele><time>2026-05-02T09:22:35Z</time></trkpt><trkpt lat="44.63292467437749" lon="10.072460966354528"><ele>532.0</ele><time>2026-05-02T09:22:37Z</time></trkpt><trkpt lat="44.633002446655176" lon="10.072392754634615"><ele>532.0</ele><time>2026-05-02T09:22:39Z</time></trkpt><trkpt lat="44.633061783001224" lon="10.072274229100405"><ele>529.6</ele><time>2026-05-02T09:22:41Z</time></trkpt><trkpt lat="44.633102615156496" lon="10.07219710544285"><ele>527.2</ele><time>2026-05-02T09:22:43Z</time></trkpt><trkpt lat="44.633022218639695" lon="10.072048055424867"><ele>524.8</ele><time>2026-05-02T09:22:45Z</time></trkpt><trkpt lat="44.63294086937306" lon="10.07191591394065"><ele>522.4</ele><time>2026-05-02T09:22:47Z</time></trkpt><trkpt lat="44.63284597938219" lon="10.071821296887816"><ele>520.0</ele><time>2026-05-02T09:22:49Z</time></trkpt><trkpt lat="44.632743717651685" lon="10.07172319460907"><ele>520.0000000000001</ele><time>2026-05-02T09:22:51Z</time></trkpt><trkpt lat="44.63268600273081" lon="10.071683000391582"><ele>520.0</ele><time>2026-05-02T09:22:52Z</time></trkpt><trkpt lat="44.63261913374243" lon="10.07164050332527"><ele>520.0</ele><time>2026-05-02T09:22:53Z</time></trkpt><trkpt lat="44.63255170475683" lon="10.07159759319242"><ele>520.0</ele><time>2026-05-02T09:22:54Z</time></trkpt><trkpt lat="44.63248401019709" lon="10.071557317479384"><ele>520.0</ele><time>2026-05-02T09:22:55Z</time></trkpt><trkpt lat="44.63242099921593" lon="10.071519828327142"><ele>520.0000000000001</ele><time>2026-05-02T09:22:56Z</time></trkpt><trkpt lat="44.63236123424304" lon="10.071489332806014"><ele>520.0</ele><time>2026-05-02T09:22:57Z</time></trkpt><trkpt lat="44.63229604042859" lon="10.071458848766424"><ele>518.7142857142858</ele><time>2026-05-02T09:22:58Z</time></trkpt><trkpt lat="44.63223223686457" lon="10.071434084927924"><ele>517.4285714285714</ele><time>2026-05-02T09:22:59Z</time></trkpt><trkpt lat="44.63216961382876" lon="10.071408883401118"><ele>516.1428571428571</ele><time>2026-05-02T09:23:00Z</time></trkpt><trkpt lat="44.63210942935524" lon="10.071372491261181"><ele>514.8571428571429</ele><time>2026-05-02T09:23:01Z</time></trkpt><trkpt lat="44.63204963236633" lon="10.071341143821275"><ele>513.5714285714286</ele><time>2026-05-02T09:23:02Z</time></trkpt><trkpt lat="44.63194694795166" lon="10.071246726023558"><ele>512.2857142857143</ele><time>2026-05-02T09:23:04Z</time></trkpt><trkpt lat="44.63189115475244" lon="10.071203204597646"><ele>511.0</ele><time>2026-05-02T09:23:05Z</time></trkpt><trkpt lat="44.6318206962381" lon="10.071181360480953"><ele>511.00000000000006</ele><time>2026-05-02T09:23:06Z</time></trkpt><trkpt lat="44.63175054466314" lon="10.071138464726971"><ele>511.0</ele><time>2026-05-02T09:23:07Z</time></trkpt><trkpt lat="44.63167222778335" lon="10.07115729032167"><ele>511.0</ele><time>2026-05-02T09:23:08Z</time></trkpt><trkpt lat="44.63160260490181" lon="10.071118191785368"><ele>511.0</ele><time>2026-05-02T09:23:09Z</time></trkpt><trkpt lat="44.6315308110466" lon="10.071059600839472"><ele>511.00000000000006</ele><time>2026-05-02T09:23:10Z</time></trkpt><trkpt lat="44.63146909840301" lon="10.071021526104156"><ele>511.0</ele><time>2026-05-02T09:23:11Z</time></trkpt><trkpt lat="44.63140297819318" lon="10.070972261612617"><ele>511.00000000000006</ele><time>2026-05-02T09:23:12Z</time></trkpt><trkpt lat="44.631349001789104" lon="10.070915186116409"><ele>511.0</ele><time>2026-05-02T09:23:13Z</time></trkpt><trkpt lat="44.63129607581975" lon="10.070856568822482"><ele>511.0</ele><time>2026-05-02T09:23:14Z</time></trkpt><trkpt lat="44.63123577853704" lon="10.070809180584673"><ele>511.0</ele><time>2026-05-02T09:23:15Z</time></trkpt><trkpt lat="44.63117360864432" lon="10.070766688514997"><ele>511.00000000000006</ele><time>2026-05-02T09:23:16Z</time></trkpt><trkpt lat="44.631105938626526" lon="10.070733153767367"><ele>511.0</ele><time>2026-05-02T09:23:17Z</time></trkpt><trkpt lat="44.63099236811537" lon="10.070664195402403"><ele>510.83333333333337</ele><time>2026-05-02T09:23:19Z</time></trkpt><trkpt lat="44.63093112529207" lon="10.07063349819471"><ele>510.6666666666667</ele><time>2026-05-02T09:23:20Z</time></trkpt><trkpt lat="44.63086443638427" lon="10.070598394348272"><ele>510.5</ele><time>2026-05-02T09:23:21Z</time></trkpt><trkpt lat="44.63081378993898" lon="10.070542243039364"><ele>510.33333333333337</ele><time>2026-05-02T09:23:22Z</time></trkpt><trkpt lat="44.63075099601138" lon="10.070495998166722"><ele>510.1666666666667</ele><time>2026-05-02T09:23:23Z</time></trkpt><trkpt lat="44.63066537646709" lon="10.070416648769186"><ele>510.0</ele><time>2026-05-02T09:23:25Z</time></trkpt><trkpt lat="44.630574076305436" lon="10.070323234415438"><ele>510.0</ele><time>2026-05-02T09:23:27Z</time></trkpt><trkpt lat="44.6304551675708" lon="10.070275202160182"><ele>510.0</ele><time>2026-05-02T09:23:29Z</time></trkpt><trkpt lat="44.63033542586521" lon="10.070271788023126"><ele>510.0</ele><time>2026-05-02T09:23:31Z</time></trkpt><trkpt lat="44.63021377859771" lon="10.070261487804416"><ele>510.0</ele><time>2026-05-02T09:23:33Z</time></trkpt><trkpt lat="44.6301506779797" lon="10.070259245750446"><ele>510.0</ele><time>2026-05-02T09:23:34Z</time></trkpt><trkpt lat="44.63008227608943" lon="10.070264585482139"><ele>511.0</ele><time>2026-05-02T09:23:35Z</time></trkpt><trkpt lat="44.63001934620374" lon="10.070233589852464"><ele>512.0</ele><time>2026-05-02T09:23:36Z</time></trkpt><trkpt lat="44.629927688701166" lon="10.070219757413804"><ele>513.0</ele><time>2026-05-02T09:23:38Z</time></trkpt><trkpt lat="44.62985446095082" lon="10.070200075719157"><ele>514.0</ele><time>2026-05-02T09:23:41Z</time></trkpt><trkpt lat="44.629939983519655" lon="10.070227993135745"><ele>515.0</ele><time>2026-05-02T09:26:00Z</time></trkpt><trkpt lat="44.63001379639826" lon="10.070223755979294"><ele>516.0</ele><time>2026-05-02T09:26:03Z</time></trkpt><trkpt lat="44.630116688578546" lon="10.070250214879634"><ele>516.0</ele><time>2026-05-02T09:26:07Z</time></trkpt><trkpt lat="44.630200913252175" lon="10.070261379932504"><ele>516.0</ele><time>2026-05-02T09:26:09Z</time></trkpt><trkpt lat="44.6302890289715" lon="10.070259076927039"><ele>516.0</ele><time>2026-05-02T09:26:11Z</time></trkpt><trkpt lat="44.63035495258594" lon="10.070279313761723"><ele>516.0</ele><time>2026-05-02T09:26:13Z</time></trkpt><trkpt lat="44.630425221967975" lon="10.070263125531415"><ele>516.0</ele><time>2026-05-02T09:26:15Z</time></trkpt><trkpt lat="44.63050054655673" lon="10.070281242058995"><ele>516.0</ele><time>2026-05-02T09:26:17Z</time></trkpt><trkpt lat="44.63057122970013" lon="10.070315245631237"><ele>515.0</ele><time>2026-05-02T09:26:19.001Z</time></trkpt><trkpt lat="44.63063301709355" lon="10.070377929498658"><ele>514.0</ele><time>2026-05-02T09:26:21.001Z</time></trkpt><trkpt lat="44.63068646579051" lon="10.07043583887476"><ele>513.0</ele><time>2026-05-02T09:26:23.001Z</time></trkpt><trkpt lat="44.63074383194125" lon="10.070492078536184"><ele>512.0</ele><time>2026-05-02T09:26:25.001Z</time></trkpt><trkpt lat="44.63081452826688" lon="10.07054524598066"><ele>511.0</ele><time>2026-05-02T09:26:27.001Z</time></trkpt><trkpt lat="44.63089090063291" lon="10.070596341749399"><ele>510.0</ele><time>2026-05-02T09:26:29.001Z</time></trkpt><trkpt lat="44.630973491229696" lon="10.070642645631771"><ele>510.0</ele><time>2026-05-02T09:26:31.001Z</time></trkpt><trkpt lat="44.63103777131927" lon="10.070704048425394"><ele>510.0</ele><time>2026-05-02T09:26:33.001Z</time></trkpt><trkpt lat="44.631120755839895" lon="10.070718714603212"><ele>510.0</ele><time>2026-05-02T09:26:35.001Z</time></trkpt><trkpt lat="44.63119115727291" lon="10.070754395064567"><ele>510.0</ele><time>2026-05-02T09:26:37.001Z</time></trkpt><trkpt lat="44.631272556409655" lon="10.070807009088744"><ele>510.0</ele><time>2026-05-02T09:26:39.001Z</time></trkpt><trkpt lat="44.63134547935735" lon="10.070908675972465"><ele>510.0</ele><time>2026-05-02T09:26:41.001Z</time></trkpt><trkpt lat="44.63145840391662" lon="10.071025555047912"><ele>510.25</ele><time>2026-05-02T09:26:43.001Z</time></trkpt><trkpt lat="44.63154190819056" lon="10.071083812481817"><ele>510.5</ele><time>2026-05-02T09:26:44.001Z</time></trkpt><trkpt lat="44.63164539931321" lon="10.071146702930923"><ele>510.75</ele><time>2026-05-02T09:26:45.001Z</time></trkpt><trkpt lat="44.631790245840534" lon="10.071206780302813"><ele>511.0</ele><time>2026-05-02T09:26:46.001Z</time></trkpt><trkpt lat="44.63191640038801" lon="10.071263271354926"><ele>510.4</ele><time>2026-05-02T09:26:48.001Z</time></trkpt><trkpt lat="44.63198317441263" lon="10.0713133290828"><ele>509.8</ele><time>2026-05-02T09:26:49.001Z</time></trkpt><trkpt lat="44.63206274031652" lon="10.071373344574216"><ele>509.19999999999993</ele><time>2026-05-02T09:26:50.001Z</time></trkpt><trkpt lat="44.6321524606072" lon="10.071417539110351"><ele>508.59999999999997</ele><time>2026-05-02T09:26:51.001Z</time></trkpt><trkpt lat="44.63226041939421" lon="10.071465638650785"><ele>508.0</ele><time>2026-05-02T09:26:52.001Z</time></trkpt><trkpt lat="44.632429474818245" lon="10.071575528696044"><ele>508.0</ele><time>2026-05-02T09:26:53.001Z</time></trkpt><trkpt lat="44.63260085085214" lon="10.071680084950835"><ele>508.0</ele><time>2026-05-02T09:26:54.001Z</time></trkpt><trkpt lat="44.63251283618283" lon="10.07160633419748"><ele>508.0</ele><time>2026-05-02T09:26:55Z</time></trkpt><trkpt lat="44.63259818587715" lon="10.071678038937439"><ele>508.0</ele><time>2026-05-02T09:26:56Z</time></trkpt><trkpt lat="44.632689573222684" lon="10.07173492341349"><ele>510.2</ele><time>2026-05-02T09:26:57Z</time></trkpt><trkpt lat="44.63277709223152" lon="10.071775323289375"><ele>512.4</ele><time>2026-05-02T09:26:58Z</time></trkpt><trkpt lat="44.63283522154082" lon="10.071850361579097"><ele>514.5999999999999</ele><time>2026-05-02T09:26:59Z</time></trkpt><trkpt lat="44.632890808248014" lon="10.07190549210611"><ele>516.8</ele><time>2026-05-02T09:27:00Z</time></trkpt><trkpt lat="44.6329828270314" lon="10.072030621438257"><ele>519.0</ele><time>2026-05-02T09:27:02Z</time></trkpt><trkpt lat="44.63303979242719" lon="10.07214933638505"><ele>519.0</ele><time>2026-05-02T09:27:04Z</time></trkpt><trkpt lat="44.63308526246403" lon="10.072259760148816"><ele>519.0</ele><time>2026-05-02T09:27:06Z</time></trkpt><trkpt lat="44.63294213805147" lon="10.072392950242921"><ele>519.0</ele><time>2026-05-02T09:27:09Z</time></trkpt><trkpt lat="44.63288441358049" lon="10.072439234635969"><ele>519.0</ele><time>2026-05-02T09:27:10Z</time></trkpt><trkpt lat="44.6328079437725" lon="10.07250500215788"><ele>519.0</ele><time>2026-05-02T09:27:11Z</time></trkpt><trkpt lat="44.63272764614013" lon="10.07257548785858"><ele>521.6</ele><time>2026-05-02T09:27:12Z</time></trkpt><trkpt lat="44.63266431872431" lon="10.072661870173786"><ele>524.2</ele><time>2026-05-02T09:27:13Z</time></trkpt><trkpt lat="44.63257824985774" lon="10.072718917406466"><ele>526.8000000000001</ele><time>2026-05-02T09:27:14Z</time></trkpt><trkpt lat="44.63250412042329" lon="10.072770632983397"><ele>529.4</ele><time>2026-05-02T09:27:15Z</time></trkpt><trkpt lat="44.632384647390644" lon="10.072803135198013"><ele>532.0</ele><time>2026-05-02T09:27:17Z</time></trkpt><trkpt lat="44.63230575883408" lon="10.07280262988985"><ele>532.0</ele><time>2026-05-02T09:27:18Z</time></trkpt><trkpt lat="44.632227234362844" lon="10.072818043192102"><ele>532.0</ele><time>2026-05-02T09:27:19Z</time></trkpt><trkpt lat="44.63213898695215" lon="10.072841885495194"><ele>532.0</ele><time>2026-05-02T09:27:20Z</time></trkpt><trkpt lat="44.632047676405676" lon="10.072897528069934"><ele>532.0</ele><time>2026-05-02T09:27:21Z</time></trkpt><trkpt lat="44.63196489174738" lon="10.07292603157904"><ele>532.0</ele><time>2026-05-02T09:27:22Z</time></trkpt><trkpt lat="44.63187726698424" lon="10.072940172610647"><ele>532.0</ele><time>2026-05-02T09:27:23Z</time></trkpt><trkpt lat="44.63181085697246" lon="10.072978263325178"><ele>533.4</ele><time>2026-05-02T09:27:24Z</time></trkpt><trkpt lat="44.63171871733632" lon="10.072962831581114"><ele>534.8000000000001</ele><time>2026-05-02T09:27:25Z</time></trkpt><trkpt lat="44.6316180173016" lon="10.072959453712661"><ele>536.2</ele><time>2026-05-02T09:27:26Z</time></trkpt><trkpt lat="44.63150175305884" lon="10.072966449330819"><ele>537.6</ele><time>2026-05-02T09:27:27Z</time></trkpt><trkpt lat="44.63140342965415" lon="10.072954564999273"><ele>539.0</ele><time>2026-05-02T09:27:28Z</time></trkpt><trkpt lat="44.63130610562998" lon="10.07295029844972"><ele>539.0</ele><time>2026-05-02T09:27:29Z</time></trkpt><trkpt lat="44.63120028342119" lon="10.072953884660166"><ele>539.0</ele><time>2026-05-02T09:27:30Z</time></trkpt><trkpt lat="44.631073981714394" lon="10.072955706187567"><ele>539.0</ele><time>2026-05-02T09:27:31Z</time></trkpt><trkpt lat="44.63094802108903" lon="10.072970109712248"><ele>539.0</ele><time>2026-05-02T09:27:32Z</time></trkpt><trkpt lat="44.630830209679395" lon="10.072961120029921"><ele>540.8</ele><time>2026-05-02T09:27:33Z</time></trkpt><trkpt lat="44.63071019209035" lon="10.072979286142827"><ele>542.5999999999999</ele><time>2026-05-02T09:27:34Z</time></trkpt><trkpt lat="44.63059205477928" lon="10.072998393422177"><ele>544.4</ele><time>2026-05-02T09:27:35Z</time></trkpt><trkpt lat="44.63048871307059" lon="10.073013120298997"><ele>546.1999999999999</ele><time>2026-05-02T09:27:36Z</time></trkpt><trkpt lat="44.63038937504399" lon="10.073024284004818"><ele>548.0</ele><time>2026-05-02T09:27:37Z</time></trkpt><trkpt lat="44.63029341026246" lon="10.073035068623929"><ele>549.1999999999999</ele><time>2026-05-02T09:27:38Z</time></trkpt><trkpt lat="44.63019027323556" lon="10.073057308976447"><ele>550.4</ele><time>2026-05-02T09:27:39Z</time></trkpt><trkpt lat="44.63011408022064" lon="10.07306340858698"><ele>551.5999999999999</ele><time>2026-05-02T09:27:40Z</time></trkpt><trkpt lat="44.630027093059304" lon="10.073100489260785"><ele>552.8</ele><time>2026-05-02T09:27:41Z</time></trkpt><trkpt lat="44.62995656566937" lon="10.073177516216099"><ele>554.0</ele><time>2026-05-02T09:27:42Z</time></trkpt><trkpt lat="44.6298616307948" lon="10.073250014059864"><ele>554.0</ele><time>2026-05-02T09:27:43Z</time></trkpt><trkpt lat="44.62976912220742" lon="10.073268070794379"><ele>554.0</ele><time>2026-05-02T09:27:44Z</time></trkpt><trkpt lat="44.62969069511655" lon="10.073319610678316"><ele>554.0</ele><time>2026-05-02T09:27:45Z</time></trkpt><trkpt lat="44.62960308114524" lon="10.073385702330375"><ele>554.0</ele><time>2026-05-02T09:27:47Z</time></trkpt><trkpt lat="44.62947354756339" lon="10.073452012206241"><ele>554.0</ele><time>2026-05-02T09:27:48Z</time></trkpt><trkpt lat="44.629391221706385" lon="10.073497524910005"><ele>556.3333333333333</ele><time>2026-05-02T09:27:49Z</time></trkpt><trkpt lat="44.62935381737647" lon="10.073610562948998"><ele>558.6666666666666</ele><time>2026-05-02T09:28:10.001Z</time></trkpt><trkpt lat="44.62929554273164" lon="10.073657056272713"><ele>561.0</ele><time>2026-05-02T09:29:05Z</time></trkpt><trkpt lat="44.62924977378606" lon="10.073718948065846"><ele>563.3333333333334</ele><time>2026-05-02T09:29:06Z</time></trkpt><trkpt lat="44.62919930732921" lon="10.073776468106352"><ele>565.6666666666667</ele><time>2026-05-02T09:29:07Z</time></trkpt><trkpt lat="44.62912119149249" lon="10.073896187814343"><ele>568.0</ele><time>2026-05-02T09:29:09Z</time></trkpt><trkpt lat="44.629091466954016" lon="10.073975584725309"><ele>568.0</ele><time>2026-05-02T09:29:10Z</time></trkpt><trkpt lat="44.62901818305353" lon="10.074070347264952"><ele>568.0</ele><time>2026-05-02T09:29:12Z</time></trkpt><trkpt lat="44.62891285871684" lon="10.07428334703449"><ele>568.0</ele><time>2026-05-02T09:29:16Z</time></trkpt><trkpt lat="44.62885991056075" lon="10.074393740424249"><ele>568.0</ele><time>2026-05-02T09:29:17Z</time></trkpt><trkpt lat="44.628783250885576" lon="10.074474570230088"><ele>569.8</ele><time>2026-05-02T09:29:18Z</time></trkpt><trkpt lat="44.62869285057889" lon="10.074562350169293"><ele>571.5999999999999</ele><time>2026-05-02T09:29:20Z</time></trkpt><trkpt lat="44.6286114413791" lon="10.074696129961547"><ele>573.4000000000001</ele><time>2026-05-02T09:29:22Z</time></trkpt><trkpt lat="44.62857066725817" lon="10.07476717009703"><ele>575.2</ele><time>2026-05-02T09:29:23Z</time></trkpt><trkpt lat="44.628502259791354" lon="10.074895892547605"><ele>577.0</ele><time>2026-05-02T09:29:25Z</time></trkpt><trkpt lat="44.62844653114177" lon="10.075060641657739"><ele>582.75</ele><time>2026-05-02T09:29:27Z</time></trkpt><trkpt lat="44.62838996852458" lon="10.075211052974643"><ele>588.5</ele><time>2026-05-02T09:29:28Z</time></trkpt><trkpt lat="44.628311537808734" lon="10.075297768603045"><ele>594.25</ele><time>2026-05-02T09:29:29Z</time></trkpt><trkpt lat="44.62823904163909" lon="10.075419839895158"><ele>600.0</ele><time>2026-05-02T09:29:30Z</time></trkpt><trkpt lat="44.62828926568277" lon="10.075170867480772"><ele>600.0</ele><time>2026-05-02T09:29:31Z</time></trkpt><trkpt lat="44.62833104568978" lon="10.07526811910104"><ele>600.0</ele><time>2026-05-02T09:29:34Z</time></trkpt><trkpt lat="44.62841335332229" lon="10.075231545801044"><ele>600.0</ele><time>2026-05-02T09:29:36Z</time></trkpt><trkpt lat="44.62851782746772" lon="10.075183487962939"><ele>600.0</ele><time>2026-05-02T09:29:38Z</time></trkpt><trkpt lat="44.62861395442276" lon="10.075182578985109"><ele>600.0</ele><time>2026-05-02T09:29:40Z</time></trkpt><trkpt lat="44.62871722510023" lon="10.07523700710835"><ele>600.0</ele><time>2026-05-02T09:29:42Z</time></trkpt><trkpt lat="44.62875922115775" lon="10.075356385638242"><ele>600.0</ele><time>2026-05-02T09:29:44Z</time></trkpt><trkpt lat="44.628686197766235" lon="10.075484220479735"><ele>600.0</ele><time>2026-05-02T09:29:46Z</time></trkpt><trkpt lat="44.62863448975289" lon="10.075615468899828"><ele>600.0</ele><time>2026-05-02T09:29:48Z</time></trkpt><trkpt lat="44.62858217954497" lon="10.075748878819148"><ele>600.0</ele><time>2026-05-02T09:29:50Z</time></trkpt><trkpt lat="44.62853019412491" lon="10.075867613981988"><ele>603.3333333333334</ele><time>2026-05-02T09:29:52Z</time></trkpt><trkpt lat="44.628465032650624" lon="10.075946710829756"><ele>606.6666666666666</ele><time>2026-05-02T09:29:53Z</time></trkpt><trkpt lat="44.628397186592764" lon="10.076055998170125"><ele>610.0</ele><time>2026-05-02T09:29:55Z</time></trkpt><trkpt lat="44.62832376272813" lon="10.0761428318834"><ele>613.3333333333333</ele><time>2026-05-02T09:29:57Z</time></trkpt><trkpt lat="44.6282588701381" lon="10.076238951104278"><ele>616.6666666666666</ele><time>2026-05-02T09:29:59Z</time></trkpt><trkpt lat="44.62822163233854" lon="10.076314831511421"><ele>620.0</ele><time>2026-05-02T09:30:00Z</time></trkpt><trkpt lat="44.62813812750354" lon="10.076481913604226"><ele>622.25</ele><time>2026-05-02T09:30:02Z</time></trkpt><trkpt lat="44.6280462989973" lon="10.076623751892436"><ele>624.5</ele><time>2026-05-02T09:30:03Z</time></trkpt><trkpt lat="44.62798391994127" lon="10.076716699801658"><ele>626.75</ele><time>2026-05-02T09:30:04Z</time></trkpt><trkpt lat="44.62802244381408" lon="10.076820013762383"><ele>629.0</ele><time>2026-05-02T09:30:08Z</time></trkpt><trkpt lat="44.62783148886763" lon="10.076988092626289"><ele>629.3333333333333</ele><time>2026-05-02T09:30:10Z</time></trkpt><trkpt lat="44.62776371084838" lon="10.077098236520731"><ele>629.6666666666666</ele><time>2026-05-02T09:30:11Z</time></trkpt><trkpt lat="44.627714148388314" lon="10.077185956779939"><ele>630.0</ele><time>2026-05-02T09:30:12Z</time></trkpt><trkpt lat="44.627619143820496" lon="10.077295213601934"><ele>630.3333333333334</ele><time>2026-05-02T09:30:14Z</time></trkpt><trkpt lat="44.62757397975197" lon="10.077380846763294"><ele>630.6666666666667</ele><time>2026-05-02T09:30:16Z</time></trkpt><trkpt lat="44.627575725809656" lon="10.07747377551557"><ele>631.0</ele><time>2026-05-02T09:30:17Z</time></trkpt><trkpt lat="44.62757799784174" lon="10.077563263293412"><ele>632.3333333333334</ele><time>2026-05-02T09:30:18Z</time></trkpt><trkpt lat="44.627529996018545" lon="10.077648581059357"><ele>633.6666666666667</ele><time>2026-05-02T09:30:21.001Z</time></trkpt><trkpt lat="44.62751002537401" lon="10.077797332966991"><ele>635.0</ele><time>2026-05-02T09:30:22.001Z</time></trkpt><trkpt lat="44.62750833303735" lon="10.07792778504657"><ele>636.3333333333334</ele><time>2026-05-02T09:30:24.001Z</time></trkpt><trkpt lat="44.62746834765704" lon="10.078011930067255"><ele>637.6666666666666</ele><time>2026-05-02T09:30:26.001Z</time></trkpt><trkpt lat="44.62738558310592" lon="10.07801613117536"><ele>639.0</ele><time>2026-05-02T09:30:42.001Z</time></trkpt><trkpt lat="44.627324733285754" lon="10.07804576170417"><ele>639.0</ele><time>2026-05-02T09:30:43.001Z</time></trkpt><trkpt lat="44.627256808707635" lon="10.078055806184352"><ele>639.0</ele><time>2026-05-02T09:30:44.001Z</time></trkpt><trkpt lat="44.62718622052039" lon="10.07811077450744"><ele>639.0</ele><time>2026-05-02T09:30:45.001Z</time></trkpt><trkpt lat="44.62706839755289" lon="10.078111423702323"><ele>639.0</ele><time>2026-05-02T09:30:47.001Z</time></trkpt><trkpt lat="44.626961123214855" lon="10.078098724048361"><ele>639.0</ele><time>2026-05-02T09:30:49.001Z</time></trkpt><trkpt lat="44.62689526985666" lon="10.078083266323675"><ele>639.0</ele><time>2026-05-02T09:30:50.001Z</time></trkpt><trkpt lat="44.62682447146391" lon="10.078089797934723"><ele>637.1666666666666</ele><time>2026-05-02T09:30:51.001Z</time></trkpt><trkpt lat="44.62675269085027" lon="10.078110041014765"><ele>635.3333333333334</ele><time>2026-05-02T09:30:52.001Z</time></trkpt><trkpt lat="44.62662971914415" lon="10.078156994265433"><ele>633.5</ele><time>2026-05-02T09:30:54.001Z</time></trkpt><trkpt lat="44.6265655652638" lon="10.07816676907228"><ele>631.6666666666667</ele><time>2026-05-02T09:30:55.001Z</time></trkpt><trkpt lat="44.6264985256573" lon="10.07817252487863"><ele>629.8333333333334</ele><time>2026-05-02T09:30:56.001Z</time></trkpt><trkpt lat="44.626428346941566" lon="10.078183791897183"><ele>628.0</ele><time>2026-05-02T09:30:57.001Z</time></trkpt><trkpt lat="44.626358445709336" lon="10.078207475962119"><ele>628.0</ele><time>2026-05-02T09:30:58.001Z</time></trkpt><trkpt lat="44.62628932364158" lon="10.07819048628703"><ele>628.0</ele><time>2026-05-02T09:30:59.001Z</time></trkpt><trkpt lat="44.626223847303635" lon="10.078209044217385"><ele>628.0</ele><time>2026-05-02T09:31:00.001Z</time></trkpt><trkpt lat="44.62615958438367" lon="10.078216679792721"><ele>628.0</ele><time>2026-05-02T09:31:01.001Z</time></trkpt><trkpt lat="44.626049261718435" lon="10.078227808524499"><ele>628.0</ele><time>2026-05-02T09:31:03.001Z</time></trkpt><trkpt lat="44.62594805466833" lon="10.078231539174102"><ele>628.0</ele><time>2026-05-02T09:31:05.001Z</time></trkpt><trkpt lat="44.62584281716849" lon="10.07825156709115"><ele>628.8333333333334</ele><time>2026-05-02T09:31:07Z</time></trkpt><trkpt lat="44.6257722965365" lon="10.078277163090721"><ele>629.6666666666667</ele><time>2026-05-02T09:31:08Z</time></trkpt><trkpt lat="44.62569365409051" lon="10.07829164837856"><ele>630.5</ele><time>2026-05-02T09:31:09Z</time></trkpt><trkpt lat="44.625629954722925" lon="10.078340163098776"><ele>631.3333333333334</ele><time>2026-05-02T09:31:10Z</time></trkpt><trkpt lat="44.625570179643454" lon="10.078375392197088"><ele>632.1666666666666</ele><time>2026-05-02T09:31:11Z</time></trkpt><trkpt lat="44.625471332424304" lon="10.078434736180562"><ele>633.0</ele><time>2026-05-02T09:31:13Z</time></trkpt><trkpt lat="44.62538575292982" lon="10.078483926556068"><ele>635.0</ele><time>2026-05-02T09:31:15Z</time></trkpt><trkpt lat="44.62529118698973" lon="10.078518225202062"><ele>637.0</ele><time>2026-05-02T09:31:17Z</time></trkpt><trkpt lat="44.62520581636681" lon="10.07857044945662"><ele>639.0</ele><time>2026-05-02T09:31:19Z</time></trkpt><trkpt lat="44.62508848543256" lon="10.078692127979654"><ele>641.0</ele><time>2026-05-02T09:31:21Z</time></trkpt><trkpt lat="44.62501199365943" lon="10.078743579939347"><ele>643.0</ele><time>2026-05-02T09:31:22Z</time></trkpt><trkpt lat="44.62494530593839" lon="10.078788437209507"><ele>643.0</ele><time>2026-05-02T09:31:23Z</time></trkpt><trkpt lat="44.62483296026776" lon="10.078864006215241"><ele>643.0</ele><time>2026-05-02T09:31:25Z</time></trkpt><trkpt lat="44.624761768631416" lon="10.078910939329417"><ele>643.0</ele><time>2026-05-02T09:31:27Z</time></trkpt><trkpt lat="44.62435162689855" lon="10.078836197053944"><ele>643.8333333333334</ele><time>2026-05-02T09:31:28Z</time></trkpt><trkpt lat="44.62428563918681" lon="10.078781569782352"><ele>644.6666666666667</ele><time>2026-05-02T09:31:29Z</time></trkpt><trkpt lat="44.624231015317484" lon="10.078733754417437"><ele>645.5</ele><time>2026-05-02T09:31:30Z</time></trkpt><trkpt lat="44.6241452815572" lon="10.078658706579679"><ele>646.3333333333334</ele><time>2026-05-02T09:31:32Z</time></trkpt><trkpt lat="44.624087098260674" lon="10.07851615269695"><ele>647.1666666666666</ele><time>2026-05-02T09:31:33Z</time></trkpt><trkpt lat="44.62406103863101" lon="10.078415149740602"><ele>648.0</ele><time>2026-05-02T09:31:34Z</time></trkpt><trkpt lat="44.62413639509512" lon="10.078139211408505"><ele>648.3333333333334</ele><time>2026-05-02T09:31:35Z</time></trkpt><trkpt lat="44.62409963002883" lon="10.077978120058093"><ele>648.6666666666666</ele><time>2026-05-02T09:31:38Z</time></trkpt><trkpt lat="44.62406371319297" lon="10.077887574225796"><ele>649.0</ele><time>2026-05-02T09:31:40Z</time></trkpt><trkpt lat="44.624024224774836" lon="10.077818596475963"><ele>649.3333333333333</ele><time>2026-05-02T09:31:41Z</time></trkpt><trkpt lat="44.62395363972938" lon="10.077729047090871"><ele>649.6666666666666</ele><time>2026-05-02T09:31:43Z</time></trkpt><trkpt lat="44.62389000672033" lon="10.07765634569347"><ele>650.0</ele><time>2026-05-02T09:31:45Z</time></trkpt><trkpt lat="44.623736334907136" lon="10.077478749902772"><ele>649.6</ele><time>2026-05-02T09:31:47Z</time></trkpt><trkpt lat="44.623708649762925" lon="10.077306936714137"><ele>649.2</ele><time>2026-05-02T09:31:48Z</time></trkpt><trkpt lat="44.62370749174884" lon="10.077209125831242"><ele>648.8</ele><time>2026-05-02T09:31:49Z</time></trkpt><trkpt lat="44.623712027061345" lon="10.077109166426164"><ele>648.4</ele><time>2026-05-02T09:31:50Z</time></trkpt><trkpt lat="44.62371964596981" lon="10.0769612551329"><ele>648.0</ele><time>2026-05-02T09:31:52Z</time></trkpt><trkpt lat="44.6237232681723" lon="10.076803205358138"><ele>648.0</ele><time>2026-05-02T09:31:55Z</time></trkpt><trkpt lat="44.623722184008656" lon="10.076664555172007"><ele>648.0</ele><time>2026-05-02T09:31:57Z</time></trkpt><trkpt lat="44.6236945453445" lon="10.076583716875144"><ele>648.0</ele><time>2026-05-02T09:31:58Z</time></trkpt><trkpt lat="44.6236474011172" lon="10.076461471031369"><ele>648.0</ele><time>2026-05-02T09:32:00Z</time></trkpt><trkpt lat="44.62357971832018" lon="10.076359741409206"><ele>648.0</ele><time>2026-05-02T09:32:02Z</time></trkpt><trkpt lat="44.62348711493413" lon="10.076251521209553"><ele>648.8333333333334</ele><time>2026-05-02T09:32:04Z</time></trkpt><trkpt lat="44.62343151022191" lon="10.07619320808934"><ele>649.6666666666666</ele><time>2026-05-02T09:32:05Z</time></trkpt><trkpt lat="44.62337429994266" lon="10.076146904284537"><ele>650.5</ele><time>2026-05-02T09:32:06Z</time></trkpt><trkpt lat="44.623311998059066" lon="10.076094314629808"><ele>651.3333333333333</ele><time>2026-05-02T09:32:07Z</time></trkpt><trkpt lat="44.62322363958851" lon="10.07603381899977"><ele>652.1666666666666</ele><time>2026-05-02T09:32:09Z</time></trkpt><trkpt lat="44.62312793398424" lon="10.075986100166874"><ele>653.0</ele><time>2026-05-02T09:32:11Z</time></trkpt><trkpt lat="44.62306383136053" lon="10.075958864843884"><ele>653.0000000000001</ele><time>2026-05-02T09:32:12Z</time></trkpt><trkpt lat="44.62299725503241" lon="10.075935428180417"><ele>653.0</ele><time>2026-05-02T09:32:13Z</time></trkpt><trkpt lat="44.62292829017905" lon="10.075918764779304"><ele>653.0</ele><time>2026-05-02T09:32:14Z</time></trkpt><trkpt lat="44.622861423608974" lon="10.075907620777238"><ele>653.0</ele><time>2026-05-02T09:32:15Z</time></trkpt><trkpt lat="44.622787788552074" lon="10.0758998997889"><ele>653.0</ele><time>2026-05-02T09:32:16Z</time></trkpt><trkpt lat="44.62272451917252" lon="10.075905526510288"><ele>653.0000000000001</ele><time>2026-05-02T09:32:17Z</time></trkpt><trkpt lat="44.62262202698136" lon="10.075919497026678"><ele>653.0</ele><time>2026-05-02T09:32:19Z</time></trkpt><trkpt lat="44.62253188074589" lon="10.075971327412441"><ele>653.8</ele><time>2026-05-02T09:32:21Z</time></trkpt><trkpt lat="44.622471125494016" lon="10.075996092564955"><ele>654.5999999999999</ele><time>2026-05-02T09:32:22Z</time></trkpt><trkpt lat="44.62240389483456" lon="10.076048940727174"><ele>655.4000000000001</ele><time>2026-05-02T09:32:24Z</time></trkpt><trkpt lat="44.622372932371746" lon="10.076126187940897"><ele>656.2</ele><time>2026-05-02T09:32:27Z</time></trkpt><trkpt lat="44.62231124795636" lon="10.076221984105814"><ele>657.0</ele><time>2026-05-02T09:32:30Z</time></trkpt><trkpt lat="44.62189320832167" lon="10.075807729260836"><ele>657.4000000000001</ele><time>2026-05-02T09:32:32Z</time></trkpt><trkpt lat="44.6218429606821" lon="10.07588193809336"><ele>657.8000000000001</ele><time>2026-05-02T09:32:34Z</time></trkpt><trkpt lat="44.62179464210532" lon="10.075953276699405"><ele>658.2</ele><time>2026-05-02T09:32:37Z</time></trkpt><trkpt lat="44.62168666914794" lon="10.07611688553984"><ele>658.6</ele><time>2026-05-02T09:35:18.001Z</time></trkpt><trkpt lat="44.621624232032595" lon="10.076202476172133"><ele>659.0</ele><time>2026-05-02T09:35:20.001Z</time></trkpt><trkpt lat="44.62154536341226" lon="10.076275620246495"><ele>659.0</ele><time>2026-05-02T09:35:23.001Z</time></trkpt><trkpt lat="44.62147412546861" lon="10.076348149269618"><ele>659.0</ele><time>2026-05-02T09:35:25Z</time></trkpt><trkpt lat="44.62135802624267" lon="10.076428930825402"><ele>659.0</ele><time>2026-05-02T09:35:27Z</time></trkpt><trkpt lat="44.62127625515831" lon="10.076496945338562"><ele>659.0</ele><time>2026-05-02T09:35:28Z</time></trkpt><trkpt lat="44.62118699806799" lon="10.076537404786595"><ele>659.0</ele><time>2026-05-02T09:35:29Z</time></trkpt><trkpt lat="44.62110969150718" lon="10.076573788036413"><ele>660.6</ele><time>2026-05-02T09:35:30Z</time></trkpt><trkpt lat="44.62101557097365" lon="10.076574753336885"><ele>662.2</ele><time>2026-05-02T09:35:31Z</time></trkpt><trkpt lat="44.6209172539298" lon="10.076549260238057"><ele>663.8000000000001</ele><time>2026-05-02T09:35:32Z</time></trkpt><trkpt lat="44.62081249119693" lon="10.076523741557496"><ele>665.4000000000001</ele><time>2026-05-02T09:35:33Z</time></trkpt><trkpt lat="44.620718538224544" lon="10.076501770005319"><ele>667.0</ele><time>2026-05-02T09:35:34Z</time></trkpt><trkpt lat="44.620622385037365" lon="10.076488355295497"><ele>667.0000000000001</ele><time>2026-05-02T09:35:35Z</time></trkpt><trkpt lat="44.62053725689906" lon="10.07648769211266"><ele>667.0</ele><time>2026-05-02T09:35:36Z</time></trkpt><trkpt lat="44.62046363285133" lon="10.07652351372235"><ele>667.0</ele><time>2026-05-02T09:35:37Z</time></trkpt><trkpt lat="44.62039549408344" lon="10.076538374928775"><ele>667.0</ele><time>2026-05-02T09:35:38Z</time></trkpt><trkpt lat="44.62032737255353" lon="10.076564673405649"><ele>667.0</ele><time>2026-05-02T09:35:39Z</time></trkpt><trkpt lat="44.62027088340741" lon="10.076616821638662"><ele>667.0000000000001</ele><time>2026-05-02T09:35:40Z</time></trkpt><trkpt lat="44.62020852924593" lon="10.076683937931824"><ele>667.0</ele><time>2026-05-02T09:35:41Z</time></trkpt><trkpt lat="44.6201518622686" lon="10.076761419541043"><ele>667.2</ele><time>2026-05-02T09:35:42Z</time></trkpt><trkpt lat="44.62011122275953" lon="10.076843138146488"><ele>667.4000000000001</ele><time>2026-05-02T09:35:43Z</time></trkpt><trkpt lat="44.62006887635635" lon="10.076974922747324"><ele>667.5999999999999</ele><time>2026-05-02T09:35:45Z</time></trkpt><trkpt lat="44.62004505775613" lon="10.077068192186278"><ele>667.8</ele><time>2026-05-02T09:35:47Z</time></trkpt><trkpt lat="44.62018262853562" lon="10.077095973223898"><ele>668.0</ele><time>2026-05-02T09:35:51Z</time></trkpt><trkpt lat="44.62028467092777" lon="10.076994891951504"><ele>664.5999999999999</ele><time>2026-05-02T09:35:53Z</time></trkpt><trkpt lat="44.62038077918139" lon="10.076898818362976"><ele>661.1999999999999</ele><time>2026-05-02T09:35:55Z</time></trkpt><trkpt lat="44.620440855451726" lon="10.076860196886605"><ele>657.8</ele><time>2026-05-02T09:35:56Z</time></trkpt><trkpt lat="44.62050796051761" lon="10.076832760127868"><ele>654.4</ele><time>2026-05-02T09:35:57Z</time></trkpt><trkpt lat="44.62061742717925" lon="10.076819259539667"><ele>651.0</ele><time>2026-05-02T09:35:59Z</time></trkpt><trkpt lat="44.62069701020859" lon="10.076891306811222"><ele>651.0</ele><time>2026-05-02T09:36:01Z</time></trkpt><trkpt lat="44.620775309323086" lon="10.077002367129404"><ele>651.0</ele><time>2026-05-02T09:36:03Z</time></trkpt><trkpt lat="44.62082871727837" lon="10.077084251359802"><ele>651.0</ele><time>2026-05-02T09:36:05Z</time></trkpt><trkpt lat="44.62081889949288" lon="10.077224726254684"><ele>651.0</ele><time>2026-05-02T09:36:08Z</time></trkpt><trkpt lat="44.62073970185176" lon="10.077327472628753"><ele>651.0</ele><time>2026-05-02T09:36:10Z</time></trkpt><trkpt lat="44.62069837544313" lon="10.077427015455626"><ele>651.0</ele><time>2026-05-02T09:36:13Z</time></trkpt><trkpt lat="44.620733028640814" lon="10.07753091661858"><ele>635.0</ele><time>2026-05-02T09:36:16Z</time></trkpt><trkpt lat="44.620803479363715" lon="10.07757120858844"><ele>635.0</ele><time>2026-05-02T09:36:18Z</time></trkpt><trkpt lat="44.62085626600154" lon="10.077649618355586"><ele>635.0</ele><time>2026-05-02T09:36:22Z</time></trkpt></trkseg></trk></gpx>